<?xml version="1.0" encoding="UTF-8" standalone="no" ?>
<gpx xmlns="http://www.topografix.com/GPX/1/1" xmlns:xsi="http://www.w3.org/2001/XMLSchema-instance" xsi:schemaLocation="http://www.topografix.com/GPX/1/1 http://www.topografix.com/GPX/1/1/gpx.xsd" version="1.1" creator="VisuGPX - https://www.visugpx.com">
  <metadata>
    <name>PR 67 Castelnau de Guers</name>
    <desc><![CDATA[Trés trés belle randonnée à castalnau de guers]]></desc>
  </metadata>
  <wpt lat="43.43457" lon="3.44042">
    <ele>48.6</ele>
    <name><![CDATA[001]]></name>
  </wpt>
  <wpt lat="43.43526" lon="3.43949">
    <ele>53.5</ele>
    <name><![CDATA[002]]></name>
  </wpt>
  <wpt lat="43.43587" lon="3.43904">
    <ele>46.6</ele>
    <name><![CDATA[003]]></name>
  </wpt>
  <wpt lat="43.43708" lon="3.44003">
    <ele>48.3</ele>
    <name><![CDATA[004]]></name>
  </wpt>
  <wpt lat="43.43728" lon="3.44051">
    <ele>48.5</ele>
    <name><![CDATA[005]]></name>
  </wpt>
  <wpt lat="43.43756" lon="3.44088">
    <ele>47.6</ele>
    <name><![CDATA[006]]></name>
  </wpt>
  <wpt lat="43.44422" lon="3.44312">
    <ele>25.2</ele>
    <name><![CDATA[007]]></name>
  </wpt>
  <wpt lat="43.44489" lon="3.44316">
    <ele>28</ele>
    <name><![CDATA[008]]></name>
  </wpt>
  <wpt lat="43.44516" lon="3.44373">
    <ele>34</ele>
    <name><![CDATA[009]]></name>
  </wpt>
  <wpt lat="43.44752" lon="3.44569">
    <ele>63.1</ele>
    <name><![CDATA[010]]></name>
  </wpt>
  <wpt lat="43.4474" lon="3.44695">
    <ele>62.7</ele>
    <name><![CDATA[011]]></name>
  </wpt>
  <wpt lat="43.44642" lon="3.4502">
    <ele>57.9</ele>
    <name><![CDATA[012]]></name>
  </wpt>
  <wpt lat="43.44301" lon="3.45187">
    <ele>60.1</ele>
    <name><![CDATA[013]]></name>
  </wpt>
  <wpt lat="43.44057" lon="3.45678">
    <ele>58.5</ele>
    <name><![CDATA[014]]></name>
  </wpt>
  <wpt lat="43.44492" lon="3.46533">
    <ele>79</ele>
    <name><![CDATA[015]]></name>
  </wpt>
  <wpt lat="43.44283" lon="3.47737">
    <ele>83.3</ele>
    <name><![CDATA[016]]></name>
  </wpt>
  <wpt lat="43.43701" lon="3.47529">
    <ele>64.7</ele>
    <name><![CDATA[017]]></name>
  </wpt>
  <wpt lat="43.4352" lon="3.46972">
    <ele>59.7</ele>
    <name><![CDATA[018]]></name>
  </wpt>
  <wpt lat="43.4351" lon="3.46813">
    <ele>54</ele>
    <name><![CDATA[019]]></name>
  </wpt>
  <wpt lat="43.43941" lon="3.461">
    <ele>48.4</ele>
    <name><![CDATA[020]]></name>
  </wpt>
  <wpt lat="43.43697" lon="3.45633">
    <ele>40.3</ele>
    <name><![CDATA[021]]></name>
  </wpt>
  <wpt lat="43.43639" lon="3.45721">
    <ele>41.1</ele>
    <name><![CDATA[022]]></name>
  </wpt>
  <wpt lat="43.43478" lon="3.44495">
    <ele>36.8</ele>
    <name><![CDATA[023]]></name>
  </wpt>
  <wpt lat="43.43458" lon="3.44268">
    <ele>31.4</ele>
    <name><![CDATA[024]]></name>
  </wpt>
  <wpt lat="43.43451" lon="3.44156">
    <ele>44.4</ele>
    <name><![CDATA[025]]></name>
  </wpt>
  <wpt lat="43.43444" lon="3.44066">
    <ele>47.4</ele>
    <name><![CDATA[026]]></name>
  </wpt>
  <trk>
    <name><![CDATA[20190327173034-8Cj95]]></name>
    <trkseg>
      <trkpt lat="43.43458" lon="3.44044">
        <ele>43.88</ele>
        <time>2019-03-27T07:55:44Z</time>
      </trkpt>
      <trkpt lat="43.43457" lon="3.44043">
        <ele>44.36</ele>
        <time>2019-03-27T07:57:06Z</time>
      </trkpt>
      <trkpt lat="43.43456" lon="3.44039">
        <ele>44.84</ele>
        <time>2019-03-27T07:58:55Z</time>
      </trkpt>
      <trkpt lat="43.43463" lon="3.4403">
        <ele>46.28</ele>
        <time>2019-03-27T08:02:48Z</time>
      </trkpt>
      <trkpt lat="43.43465" lon="3.44017">
        <ele>47.24</ele>
        <time>2019-03-27T08:02:59Z</time>
      </trkpt>
      <trkpt lat="43.43469" lon="3.44007">
        <ele>48.68</ele>
        <time>2019-03-27T08:03:11Z</time>
      </trkpt>
      <trkpt lat="43.43476" lon="3.43997">
        <ele>49.16</ele>
        <time>2019-03-27T08:03:24Z</time>
      </trkpt>
      <trkpt lat="43.43484" lon="3.43991">
        <ele>51.09</ele>
        <time>2019-03-27T08:03:35Z</time>
      </trkpt>
      <trkpt lat="43.4349" lon="3.43982">
        <ele>51.57</ele>
        <time>2019-03-27T08:04:17Z</time>
      </trkpt>
      <trkpt lat="43.43499" lon="3.43971">
        <ele>52.05</ele>
        <time>2019-03-27T08:04:34Z</time>
      </trkpt>
      <trkpt lat="43.43507" lon="3.43963">
        <ele>53.01</ele>
        <time>2019-03-27T08:04:44Z</time>
      </trkpt>
      <trkpt lat="43.43514" lon="3.43954">
        <ele>53.01</ele>
        <time>2019-03-27T08:04:55Z</time>
      </trkpt>
      <trkpt lat="43.43524" lon="3.43949">
        <ele>53.01</ele>
        <time>2019-03-27T08:05:07Z</time>
      </trkpt>
      <trkpt lat="43.43524" lon="3.43955">
        <ele>53.01</ele>
        <time>2019-03-27T08:05:56Z</time>
      </trkpt>
      <trkpt lat="43.43527" lon="3.43952">
        <ele>53.01</ele>
        <time>2019-03-27T08:06:52Z</time>
      </trkpt>
      <trkpt lat="43.43536" lon="3.43948">
        <ele>52.05</ele>
        <time>2019-03-27T08:07:02Z</time>
      </trkpt>
      <trkpt lat="43.43546" lon="3.43942">
        <ele>51.09</ele>
        <time>2019-03-27T08:07:32Z</time>
      </trkpt>
      <trkpt lat="43.43553" lon="3.43936">
        <ele>49.65</ele>
        <time>2019-03-27T08:07:48Z</time>
      </trkpt>
      <trkpt lat="43.43559" lon="3.4393">
        <ele>49.16</ele>
        <time>2019-03-27T08:07:56Z</time>
      </trkpt>
      <trkpt lat="43.43567" lon="3.4392">
        <ele>48.2</ele>
        <time>2019-03-27T08:08:04Z</time>
      </trkpt>
      <trkpt lat="43.43574" lon="3.4391">
        <ele>46.76</ele>
        <time>2019-03-27T08:08:13Z</time>
      </trkpt>
      <trkpt lat="43.43583" lon="3.43905">
        <ele>45.8</ele>
        <time>2019-03-27T08:08:23Z</time>
      </trkpt>
      <trkpt lat="43.43592" lon="3.43901">
        <ele>44.84</ele>
        <time>2019-03-27T08:09:07Z</time>
      </trkpt>
      <trkpt lat="43.43592" lon="3.43902">
        <ele>44.84</ele>
        <time>2019-03-27T08:09:25Z</time>
      </trkpt>
      <trkpt lat="43.43594" lon="3.43908">
        <ele>44.84</ele>
        <time>2019-03-27T08:09:49Z</time>
      </trkpt>
      <trkpt lat="43.43602" lon="3.43912">
        <ele>45.32</ele>
        <time>2019-03-27T08:09:58Z</time>
      </trkpt>
      <trkpt lat="43.43613" lon="3.43916">
        <ele>45.8</ele>
        <time>2019-03-27T08:10:06Z</time>
      </trkpt>
      <trkpt lat="43.43622" lon="3.4392">
        <ele>45.8</ele>
        <time>2019-03-27T08:10:16Z</time>
      </trkpt>
      <trkpt lat="43.43631" lon="3.43922">
        <ele>46.28</ele>
        <time>2019-03-27T08:10:35Z</time>
      </trkpt>
      <trkpt lat="43.43639" lon="3.43929">
        <ele>46.76</ele>
        <time>2019-03-27T08:10:45Z</time>
      </trkpt>
      <trkpt lat="43.43648" lon="3.43933">
        <ele>47.24</ele>
        <time>2019-03-27T08:10:57Z</time>
      </trkpt>
      <trkpt lat="43.43659" lon="3.43937">
        <ele>48.68</ele>
        <time>2019-03-27T08:11:07Z</time>
      </trkpt>
      <trkpt lat="43.43668" lon="3.43944">
        <ele>49.65</ele>
        <time>2019-03-27T08:11:18Z</time>
      </trkpt>
      <trkpt lat="43.43676" lon="3.43953">
        <ele>49.65</ele>
        <time>2019-03-27T08:11:28Z</time>
      </trkpt>
      <trkpt lat="43.43684" lon="3.43965">
        <ele>50.13</ele>
        <time>2019-03-27T08:11:38Z</time>
      </trkpt>
      <trkpt lat="43.4369" lon="3.43978">
        <ele>49.65</ele>
        <time>2019-03-27T08:11:47Z</time>
      </trkpt>
      <trkpt lat="43.43695" lon="3.43988">
        <ele>49.16</ele>
        <time>2019-03-27T08:11:56Z</time>
      </trkpt>
      <trkpt lat="43.43701" lon="3.43997">
        <ele>48.68</ele>
        <time>2019-03-27T08:12:05Z</time>
      </trkpt>
      <trkpt lat="43.43706" lon="3.44001">
        <ele>49.16</ele>
        <time>2019-03-27T08:12:50Z</time>
      </trkpt>
      <trkpt lat="43.43706" lon="3.44001">
        <ele>48.68</ele>
        <time>2019-03-27T08:14:47Z</time>
      </trkpt>
      <trkpt lat="43.43711" lon="3.44008">
        <ele>48.68</ele>
        <time>2019-03-27T08:15:07Z</time>
      </trkpt>
      <trkpt lat="43.43716" lon="3.4402">
        <ele>47.24</ele>
        <time>2019-03-27T08:15:16Z</time>
      </trkpt>
      <trkpt lat="43.43723" lon="3.44032">
        <ele>46.28</ele>
        <time>2019-03-27T08:15:25Z</time>
      </trkpt>
      <trkpt lat="43.43727" lon="3.44044">
        <ele>45.8</ele>
        <time>2019-03-27T08:15:34Z</time>
      </trkpt>
      <trkpt lat="43.43729" lon="3.44051">
        <ele>45.8</ele>
        <time>2019-03-27T08:15:55Z</time>
      </trkpt>
      <trkpt lat="43.43729" lon="3.44048">
        <ele>45.8</ele>
        <time>2019-03-27T08:17:39Z</time>
      </trkpt>
      <trkpt lat="43.43732" lon="3.4406">
        <ele>45.8</ele>
        <time>2019-03-27T08:17:47Z</time>
      </trkpt>
      <trkpt lat="43.43739" lon="3.4407">
        <ele>45.8</ele>
        <time>2019-03-27T08:18:17Z</time>
      </trkpt>
      <trkpt lat="43.43747" lon="3.4408">
        <ele>45.8</ele>
        <time>2019-03-27T08:19:20Z</time>
      </trkpt>
      <trkpt lat="43.43755" lon="3.44087">
        <ele>45.8</ele>
        <time>2019-03-27T08:19:29Z</time>
      </trkpt>
      <trkpt lat="43.43758" lon="3.44089">
        <ele>45.32</ele>
        <time>2019-03-27T08:21:15Z</time>
      </trkpt>
      <trkpt lat="43.43768" lon="3.44091">
        <ele>44.84</ele>
        <time>2019-03-27T08:21:24Z</time>
      </trkpt>
      <trkpt lat="43.43777" lon="3.44095">
        <ele>44.36</ele>
        <time>2019-03-27T08:21:32Z</time>
      </trkpt>
      <trkpt lat="43.43787" lon="3.44099">
        <ele>43.88</ele>
        <time>2019-03-27T08:21:40Z</time>
      </trkpt>
      <trkpt lat="43.43796" lon="3.44103">
        <ele>43.88</ele>
        <time>2019-03-27T08:21:48Z</time>
      </trkpt>
      <trkpt lat="43.43805" lon="3.44107">
        <ele>43.4</ele>
        <time>2019-03-27T08:21:56Z</time>
      </trkpt>
      <trkpt lat="43.43814" lon="3.44112">
        <ele>43.4</ele>
        <time>2019-03-27T08:22:04Z</time>
      </trkpt>
      <trkpt lat="43.43823" lon="3.44119">
        <ele>42.92</ele>
        <time>2019-03-27T08:22:13Z</time>
      </trkpt>
      <trkpt lat="43.43832" lon="3.44124">
        <ele>42.44</ele>
        <time>2019-03-27T08:22:21Z</time>
      </trkpt>
      <trkpt lat="43.43841" lon="3.44131">
        <ele>41.95</ele>
        <time>2019-03-27T08:22:30Z</time>
      </trkpt>
      <trkpt lat="43.4385" lon="3.44138">
        <ele>41.47</ele>
        <time>2019-03-27T08:22:38Z</time>
      </trkpt>
      <trkpt lat="43.43858" lon="3.44146">
        <ele>40.51</ele>
        <time>2019-03-27T08:22:46Z</time>
      </trkpt>
      <trkpt lat="43.43867" lon="3.4415">
        <ele>39.55</ele>
        <time>2019-03-27T08:22:54Z</time>
      </trkpt>
      <trkpt lat="43.43876" lon="3.44154">
        <ele>38.59</ele>
        <time>2019-03-27T08:23:02Z</time>
      </trkpt>
      <trkpt lat="43.43885" lon="3.44157">
        <ele>38.11</ele>
        <time>2019-03-27T08:23:10Z</time>
      </trkpt>
      <trkpt lat="43.43895" lon="3.44159">
        <ele>37.15</ele>
        <time>2019-03-27T08:23:18Z</time>
      </trkpt>
      <trkpt lat="43.43904" lon="3.44159">
        <ele>36.67</ele>
        <time>2019-03-27T08:23:26Z</time>
      </trkpt>
      <trkpt lat="43.43912" lon="3.44159">
        <ele>36.19</ele>
        <time>2019-03-27T08:23:46Z</time>
      </trkpt>
      <trkpt lat="43.43922" lon="3.44159">
        <ele>35.71</ele>
        <time>2019-03-27T08:23:54Z</time>
      </trkpt>
      <trkpt lat="43.43932" lon="3.4416">
        <ele>35.23</ele>
        <time>2019-03-27T08:24:02Z</time>
      </trkpt>
      <trkpt lat="43.43943" lon="3.44158">
        <ele>35.23</ele>
        <time>2019-03-27T08:24:11Z</time>
      </trkpt>
      <trkpt lat="43.43953" lon="3.44157">
        <ele>34.74</ele>
        <time>2019-03-27T08:24:19Z</time>
      </trkpt>
      <trkpt lat="43.43961" lon="3.44156">
        <ele>34.26</ele>
        <time>2019-03-27T08:24:27Z</time>
      </trkpt>
      <trkpt lat="43.43971" lon="3.44158">
        <ele>34.26</ele>
        <time>2019-03-27T08:24:35Z</time>
      </trkpt>
      <trkpt lat="43.43981" lon="3.44162">
        <ele>33.78</ele>
        <time>2019-03-27T08:24:44Z</time>
      </trkpt>
      <trkpt lat="43.43991" lon="3.44167">
        <ele>32.82</ele>
        <time>2019-03-27T08:24:53Z</time>
      </trkpt>
      <trkpt lat="43.43999" lon="3.44174">
        <ele>32.34</ele>
        <time>2019-03-27T08:25:01Z</time>
      </trkpt>
      <trkpt lat="43.44008" lon="3.44182">
        <ele>31.38</ele>
        <time>2019-03-27T08:25:10Z</time>
      </trkpt>
      <trkpt lat="43.44017" lon="3.44187">
        <ele>30.42</ele>
        <time>2019-03-27T08:25:18Z</time>
      </trkpt>
      <trkpt lat="43.44025" lon="3.44193">
        <ele>29.94</ele>
        <time>2019-03-27T08:25:26Z</time>
      </trkpt>
      <trkpt lat="43.44035" lon="3.44197">
        <ele>28.98</ele>
        <time>2019-03-27T08:25:35Z</time>
      </trkpt>
      <trkpt lat="43.44045" lon="3.44197">
        <ele>28.5</ele>
        <time>2019-03-27T08:25:44Z</time>
      </trkpt>
      <trkpt lat="43.44055" lon="3.44195">
        <ele>28.5</ele>
        <time>2019-03-27T08:25:53Z</time>
      </trkpt>
      <trkpt lat="43.44065" lon="3.44193">
        <ele>28.5</ele>
        <time>2019-03-27T08:26:02Z</time>
      </trkpt>
      <trkpt lat="43.44075" lon="3.44192">
        <ele>28.5</ele>
        <time>2019-03-27T08:26:11Z</time>
      </trkpt>
      <trkpt lat="43.44085" lon="3.44192">
        <ele>28.5</ele>
        <time>2019-03-27T08:26:19Z</time>
      </trkpt>
      <trkpt lat="43.44093" lon="3.44194">
        <ele>28.5</ele>
        <time>2019-03-27T08:26:30Z</time>
      </trkpt>
      <trkpt lat="43.44102" lon="3.44197">
        <ele>28.5</ele>
        <time>2019-03-27T08:26:39Z</time>
      </trkpt>
      <trkpt lat="43.44112" lon="3.44201">
        <ele>28.5</ele>
        <time>2019-03-27T08:26:48Z</time>
      </trkpt>
      <trkpt lat="43.44121" lon="3.44207">
        <ele>28.5</ele>
        <time>2019-03-27T08:26:57Z</time>
      </trkpt>
      <trkpt lat="43.4413" lon="3.44212">
        <ele>28.5</ele>
        <time>2019-03-27T08:27:06Z</time>
      </trkpt>
      <trkpt lat="43.44139" lon="3.44219">
        <ele>28.5</ele>
        <time>2019-03-27T08:27:15Z</time>
      </trkpt>
      <trkpt lat="43.44148" lon="3.44228">
        <ele>28.5</ele>
        <time>2019-03-27T08:27:24Z</time>
      </trkpt>
      <trkpt lat="43.44156" lon="3.44236">
        <ele>28.98</ele>
        <time>2019-03-27T08:27:32Z</time>
      </trkpt>
      <trkpt lat="43.44162" lon="3.44245">
        <ele>28.98</ele>
        <time>2019-03-27T08:27:42Z</time>
      </trkpt>
      <trkpt lat="43.44171" lon="3.44252">
        <ele>29.46</ele>
        <time>2019-03-27T08:27:51Z</time>
      </trkpt>
      <trkpt lat="43.4418" lon="3.44257">
        <ele>28.98</ele>
        <time>2019-03-27T08:28:00Z</time>
      </trkpt>
      <trkpt lat="43.44189" lon="3.44262">
        <ele>28.98</ele>
        <time>2019-03-27T08:28:10Z</time>
      </trkpt>
      <trkpt lat="43.44198" lon="3.44267">
        <ele>29.46</ele>
        <time>2019-03-27T08:28:19Z</time>
      </trkpt>
      <trkpt lat="43.44208" lon="3.44271">
        <ele>29.46</ele>
        <time>2019-03-27T08:28:30Z</time>
      </trkpt>
      <trkpt lat="43.44219" lon="3.44273">
        <ele>29.46</ele>
        <time>2019-03-27T08:28:39Z</time>
      </trkpt>
      <trkpt lat="43.44227" lon="3.44277">
        <ele>29.94</ele>
        <time>2019-03-27T08:28:49Z</time>
      </trkpt>
      <trkpt lat="43.44238" lon="3.4428">
        <ele>29.94</ele>
        <time>2019-03-27T08:28:58Z</time>
      </trkpt>
      <trkpt lat="43.44248" lon="3.44282">
        <ele>30.42</ele>
        <time>2019-03-27T08:29:07Z</time>
      </trkpt>
      <trkpt lat="43.44256" lon="3.44286">
        <ele>30.42</ele>
        <time>2019-03-27T08:29:16Z</time>
      </trkpt>
      <trkpt lat="43.44266" lon="3.4429">
        <ele>29.46</ele>
        <time>2019-03-27T08:29:29Z</time>
      </trkpt>
      <trkpt lat="43.44276" lon="3.44298">
        <ele>28.98</ele>
        <time>2019-03-27T08:29:40Z</time>
      </trkpt>
      <trkpt lat="43.44284" lon="3.44305">
        <ele>27.53</ele>
        <time>2019-03-27T08:29:50Z</time>
      </trkpt>
      <trkpt lat="43.44292" lon="3.44311">
        <ele>27.05</ele>
        <time>2019-03-27T08:31:09Z</time>
      </trkpt>
      <trkpt lat="43.44302" lon="3.44319">
        <ele>26.09</ele>
        <time>2019-03-27T08:31:20Z</time>
      </trkpt>
      <trkpt lat="43.44312" lon="3.44322">
        <ele>24.65</ele>
        <time>2019-03-27T08:31:30Z</time>
      </trkpt>
      <trkpt lat="43.44323" lon="3.44324">
        <ele>23.69</ele>
        <time>2019-03-27T08:31:41Z</time>
      </trkpt>
      <trkpt lat="43.44334" lon="3.44327">
        <ele>22.25</ele>
        <time>2019-03-27T08:31:51Z</time>
      </trkpt>
      <trkpt lat="43.44345" lon="3.44324">
        <ele>21.77</ele>
        <time>2019-03-27T08:32:00Z</time>
      </trkpt>
      <trkpt lat="43.44354" lon="3.44321">
        <ele>21.77</ele>
        <time>2019-03-27T08:32:10Z</time>
      </trkpt>
      <trkpt lat="43.44361" lon="3.4432">
        <ele>22.25</ele>
        <time>2019-03-27T08:33:02Z</time>
      </trkpt>
      <trkpt lat="43.4437" lon="3.44318">
        <ele>21.77</ele>
        <time>2019-03-27T08:33:10Z</time>
      </trkpt>
      <trkpt lat="43.4438" lon="3.44315">
        <ele>21.77</ele>
        <time>2019-03-27T08:33:19Z</time>
      </trkpt>
      <trkpt lat="43.4439" lon="3.44314">
        <ele>22.25</ele>
        <time>2019-03-27T08:33:28Z</time>
      </trkpt>
      <trkpt lat="43.44399" lon="3.44312">
        <ele>22.73</ele>
        <time>2019-03-27T08:33:43Z</time>
      </trkpt>
      <trkpt lat="43.44409" lon="3.44311">
        <ele>23.21</ele>
        <time>2019-03-27T08:33:53Z</time>
      </trkpt>
      <trkpt lat="43.44418" lon="3.44309">
        <ele>23.69</ele>
        <time>2019-03-27T08:34:03Z</time>
      </trkpt>
      <trkpt lat="43.44427" lon="3.4431">
        <ele>24.17</ele>
        <time>2019-03-27T08:34:33Z</time>
      </trkpt>
      <trkpt lat="43.4443" lon="3.44305">
        <ele>24.17</ele>
        <time>2019-03-27T08:35:02Z</time>
      </trkpt>
      <trkpt lat="43.44437" lon="3.44306">
        <ele>24.17</ele>
        <time>2019-03-27T08:36:33Z</time>
      </trkpt>
      <trkpt lat="43.44448" lon="3.44307">
        <ele>24.65</ele>
        <time>2019-03-27T08:36:41Z</time>
      </trkpt>
      <trkpt lat="43.44458" lon="3.44309">
        <ele>26.09</ele>
        <time>2019-03-27T08:36:49Z</time>
      </trkpt>
      <trkpt lat="43.44467" lon="3.44311">
        <ele>27.05</ele>
        <time>2019-03-27T08:36:58Z</time>
      </trkpt>
      <trkpt lat="43.44477" lon="3.44315">
        <ele>28.02</ele>
        <time>2019-03-27T08:37:07Z</time>
      </trkpt>
      <trkpt lat="43.44488" lon="3.44316">
        <ele>28.98</ele>
        <time>2019-03-27T08:37:16Z</time>
      </trkpt>
      <trkpt lat="43.44492" lon="3.44322">
        <ele>29.46</ele>
        <time>2019-03-27T08:38:08Z</time>
      </trkpt>
      <trkpt lat="43.44496" lon="3.44331">
        <ele>29.94</ele>
        <time>2019-03-27T08:38:28Z</time>
      </trkpt>
      <trkpt lat="43.44501" lon="3.44341">
        <ele>30.9</ele>
        <time>2019-03-27T08:38:58Z</time>
      </trkpt>
      <trkpt lat="43.44504" lon="3.44353">
        <ele>31.38</ele>
        <time>2019-03-27T08:39:12Z</time>
      </trkpt>
      <trkpt lat="43.44509" lon="3.44364">
        <ele>31.38</ele>
        <time>2019-03-27T08:39:34Z</time>
      </trkpt>
      <trkpt lat="43.44516" lon="3.44373">
        <ele>32.34</ele>
        <time>2019-03-27T08:40:04Z</time>
      </trkpt>
      <trkpt lat="43.44517" lon="3.44376">
        <ele>32.82</ele>
        <time>2019-03-27T08:41:35Z</time>
      </trkpt>
      <trkpt lat="43.44525" lon="3.44383">
        <ele>33.78</ele>
        <time>2019-03-27T08:41:47Z</time>
      </trkpt>
      <trkpt lat="43.44534" lon="3.44394">
        <ele>35.71</ele>
        <time>2019-03-27T08:42:11Z</time>
      </trkpt>
      <trkpt lat="43.44545" lon="3.44402">
        <ele>36.67</ele>
        <time>2019-03-27T08:42:23Z</time>
      </trkpt>
      <trkpt lat="43.44554" lon="3.44409">
        <ele>37.63</ele>
        <time>2019-03-27T08:42:33Z</time>
      </trkpt>
      <trkpt lat="43.44562" lon="3.44417">
        <ele>38.11</ele>
        <time>2019-03-27T08:42:42Z</time>
      </trkpt>
      <trkpt lat="43.4457" lon="3.44424">
        <ele>39.07</ele>
        <time>2019-03-27T08:42:51Z</time>
      </trkpt>
      <trkpt lat="43.44578" lon="3.44431">
        <ele>40.03</ele>
        <time>2019-03-27T08:43:01Z</time>
      </trkpt>
      <trkpt lat="43.44586" lon="3.44438">
        <ele>40.99</ele>
        <time>2019-03-27T08:43:27Z</time>
      </trkpt>
      <trkpt lat="43.44595" lon="3.44444">
        <ele>41.95</ele>
        <time>2019-03-27T08:43:38Z</time>
      </trkpt>
      <trkpt lat="43.44603" lon="3.44452">
        <ele>42.92</ele>
        <time>2019-03-27T08:43:49Z</time>
      </trkpt>
      <trkpt lat="43.44611" lon="3.44459">
        <ele>43.4</ele>
        <time>2019-03-27T08:44:00Z</time>
      </trkpt>
      <trkpt lat="43.4462" lon="3.44465">
        <ele>45.32</ele>
        <time>2019-03-27T08:44:12Z</time>
      </trkpt>
      <trkpt lat="43.44627" lon="3.44473">
        <ele>46.76</ele>
        <time>2019-03-27T08:44:25Z</time>
      </trkpt>
      <trkpt lat="43.44635" lon="3.44481">
        <ele>48.2</ele>
        <time>2019-03-27T08:44:40Z</time>
      </trkpt>
      <trkpt lat="43.44642" lon="3.44492">
        <ele>49.65</ele>
        <time>2019-03-27T08:44:54Z</time>
      </trkpt>
      <trkpt lat="43.44649" lon="3.44501">
        <ele>51.57</ele>
        <time>2019-03-27T08:45:07Z</time>
      </trkpt>
      <trkpt lat="43.44658" lon="3.44509">
        <ele>53.01</ele>
        <time>2019-03-27T08:45:19Z</time>
      </trkpt>
      <trkpt lat="43.44667" lon="3.44512">
        <ele>53.97</ele>
        <time>2019-03-27T08:45:33Z</time>
      </trkpt>
      <trkpt lat="43.44676" lon="3.44518">
        <ele>56.37</ele>
        <time>2019-03-27T08:45:46Z</time>
      </trkpt>
      <trkpt lat="43.44684" lon="3.44525">
        <ele>57.82</ele>
        <time>2019-03-27T08:46:02Z</time>
      </trkpt>
      <trkpt lat="43.44692" lon="3.44532">
        <ele>59.26</ele>
        <time>2019-03-27T08:46:17Z</time>
      </trkpt>
      <trkpt lat="43.44699" lon="3.4454">
        <ele>61.18</ele>
        <time>2019-03-27T08:46:36Z</time>
      </trkpt>
      <trkpt lat="43.44706" lon="3.44547">
        <ele>62.62</ele>
        <time>2019-03-27T08:46:52Z</time>
      </trkpt>
      <trkpt lat="43.44715" lon="3.44555">
        <ele>64.07</ele>
        <time>2019-03-27T08:47:05Z</time>
      </trkpt>
      <trkpt lat="43.44725" lon="3.4456">
        <ele>66.47</ele>
        <time>2019-03-27T08:47:20Z</time>
      </trkpt>
      <trkpt lat="43.44732" lon="3.44562">
        <ele>68.87</ele>
        <time>2019-03-27T08:47:43Z</time>
      </trkpt>
      <trkpt lat="43.44741" lon="3.44563">
        <ele>70.79</ele>
        <time>2019-03-27T08:48:00Z</time>
      </trkpt>
      <trkpt lat="43.4475" lon="3.44568">
        <ele>71.27</ele>
        <time>2019-03-27T08:48:09Z</time>
      </trkpt>
      <trkpt lat="43.44758" lon="3.44573">
        <ele>71.76</ele>
        <time>2019-03-27T08:48:52Z</time>
      </trkpt>
      <trkpt lat="43.44753" lon="3.4457">
        <ele>71.76</ele>
        <time>2019-03-27T08:49:21Z</time>
      </trkpt>
      <trkpt lat="43.44759" lon="3.44573">
        <ele>71.76</ele>
        <time>2019-03-27T08:49:37Z</time>
      </trkpt>
      <trkpt lat="43.44755" lon="3.4457">
        <ele>71.76</ele>
        <time>2019-03-27T08:53:23Z</time>
      </trkpt>
      <trkpt lat="43.44757" lon="3.44572">
        <ele>71.76</ele>
        <time>2019-03-27T08:55:06Z</time>
      </trkpt>
      <trkpt lat="43.44765" lon="3.44579">
        <ele>71.27</ele>
        <time>2019-03-27T08:55:16Z</time>
      </trkpt>
      <trkpt lat="43.44771" lon="3.44591">
        <ele>70.79</ele>
        <time>2019-03-27T08:55:26Z</time>
      </trkpt>
      <trkpt lat="43.44771" lon="3.44604">
        <ele>71.27</ele>
        <time>2019-03-27T08:55:36Z</time>
      </trkpt>
      <trkpt lat="43.44767" lon="3.44615">
        <ele>71.76</ele>
        <time>2019-03-27T08:55:48Z</time>
      </trkpt>
      <trkpt lat="43.44759" lon="3.44624">
        <ele>72.24</ele>
        <time>2019-03-27T08:55:58Z</time>
      </trkpt>
      <trkpt lat="43.44756" lon="3.44635">
        <ele>72.24</ele>
        <time>2019-03-27T08:56:07Z</time>
      </trkpt>
      <trkpt lat="43.44753" lon="3.44647">
        <ele>71.76</ele>
        <time>2019-03-27T08:56:34Z</time>
      </trkpt>
      <trkpt lat="43.44749" lon="3.44658">
        <ele>71.27</ele>
        <time>2019-03-27T08:56:54Z</time>
      </trkpt>
      <trkpt lat="43.44747" lon="3.44671">
        <ele>70.79</ele>
        <time>2019-03-27T08:57:06Z</time>
      </trkpt>
      <trkpt lat="43.44744" lon="3.44682">
        <ele>69.83</ele>
        <time>2019-03-27T08:57:16Z</time>
      </trkpt>
      <trkpt lat="43.44741" lon="3.44693">
        <ele>68.87</ele>
        <time>2019-03-27T08:57:29Z</time>
      </trkpt>
      <trkpt lat="43.44737" lon="3.44699">
        <ele>67.43</ele>
        <time>2019-03-27T08:58:16Z</time>
      </trkpt>
      <trkpt lat="43.44733" lon="3.44706">
        <ele>65.99</ele>
        <time>2019-03-27T08:59:14Z</time>
      </trkpt>
      <trkpt lat="43.44726" lon="3.44715">
        <ele>64.07</ele>
        <time>2019-03-27T08:59:25Z</time>
      </trkpt>
      <trkpt lat="43.44719" lon="3.44724">
        <ele>63.1</ele>
        <time>2019-03-27T08:59:37Z</time>
      </trkpt>
      <trkpt lat="43.44716" lon="3.44736">
        <ele>62.62</ele>
        <time>2019-03-27T08:59:46Z</time>
      </trkpt>
      <trkpt lat="43.44717" lon="3.44743">
        <ele>62.14</ele>
        <time>2019-03-27T09:00:01Z</time>
      </trkpt>
      <trkpt lat="43.44715" lon="3.44747">
        <ele>61.66</ele>
        <time>2019-03-27T09:00:20Z</time>
      </trkpt>
      <trkpt lat="43.44714" lon="3.44759">
        <ele>60.7</ele>
        <time>2019-03-27T09:00:34Z</time>
      </trkpt>
      <trkpt lat="43.44711" lon="3.44771">
        <ele>60.22</ele>
        <time>2019-03-27T09:00:43Z</time>
      </trkpt>
      <trkpt lat="43.44708" lon="3.44782">
        <ele>59.26</ele>
        <time>2019-03-27T09:00:53Z</time>
      </trkpt>
      <trkpt lat="43.44707" lon="3.44797">
        <ele>58.78</ele>
        <time>2019-03-27T09:01:03Z</time>
      </trkpt>
      <trkpt lat="43.44704" lon="3.44809">
        <ele>58.3</ele>
        <time>2019-03-27T09:01:12Z</time>
      </trkpt>
      <trkpt lat="43.44701" lon="3.44823">
        <ele>57.82</ele>
        <time>2019-03-27T09:01:21Z</time>
      </trkpt>
      <trkpt lat="43.44696" lon="3.44834">
        <ele>57.82</ele>
        <time>2019-03-27T09:01:30Z</time>
      </trkpt>
      <trkpt lat="43.44691" lon="3.44847">
        <ele>57.82</ele>
        <time>2019-03-27T09:01:39Z</time>
      </trkpt>
      <trkpt lat="43.44687" lon="3.44858">
        <ele>57.34</ele>
        <time>2019-03-27T09:01:51Z</time>
      </trkpt>
      <trkpt lat="43.44683" lon="3.44869">
        <ele>57.34</ele>
        <time>2019-03-27T09:01:59Z</time>
      </trkpt>
      <trkpt lat="43.44679" lon="3.44882">
        <ele>57.34</ele>
        <time>2019-03-27T09:02:08Z</time>
      </trkpt>
      <trkpt lat="43.44676" lon="3.44895">
        <ele>57.34</ele>
        <time>2019-03-27T09:02:17Z</time>
      </trkpt>
      <trkpt lat="43.44677" lon="3.44908">
        <ele>57.82</ele>
        <time>2019-03-27T09:02:26Z</time>
      </trkpt>
      <trkpt lat="43.44678" lon="3.44921">
        <ele>58.3</ele>
        <time>2019-03-27T09:02:35Z</time>
      </trkpt>
      <trkpt lat="43.44679" lon="3.44934">
        <ele>58.3</ele>
        <time>2019-03-27T09:02:44Z</time>
      </trkpt>
      <trkpt lat="43.44676" lon="3.44945">
        <ele>58.3</ele>
        <time>2019-03-27T09:02:53Z</time>
      </trkpt>
      <trkpt lat="43.44671" lon="3.44957">
        <ele>58.78</ele>
        <time>2019-03-27T09:03:02Z</time>
      </trkpt>
      <trkpt lat="43.44666" lon="3.44968">
        <ele>58.3</ele>
        <time>2019-03-27T09:03:11Z</time>
      </trkpt>
      <trkpt lat="43.44661" lon="3.44979">
        <ele>57.82</ele>
        <time>2019-03-27T09:03:20Z</time>
      </trkpt>
      <trkpt lat="43.44656" lon="3.4499">
        <ele>57.34</ele>
        <time>2019-03-27T09:03:32Z</time>
      </trkpt>
      <trkpt lat="43.44651" lon="3.45002">
        <ele>57.34</ele>
        <time>2019-03-27T09:03:41Z</time>
      </trkpt>
      <trkpt lat="43.44647" lon="3.45014">
        <ele>57.34</ele>
        <time>2019-03-27T09:03:50Z</time>
      </trkpt>
      <trkpt lat="43.44641" lon="3.4502">
        <ele>55.89</ele>
        <time>2019-03-27T09:04:27Z</time>
      </trkpt>
      <trkpt lat="43.44642" lon="3.45029">
        <ele>55.89</ele>
        <time>2019-03-27T09:06:24Z</time>
      </trkpt>
      <trkpt lat="43.44644" lon="3.45041">
        <ele>55.89</ele>
        <time>2019-03-27T09:06:32Z</time>
      </trkpt>
      <trkpt lat="43.44647" lon="3.45053">
        <ele>55.41</ele>
        <time>2019-03-27T09:06:40Z</time>
      </trkpt>
      <trkpt lat="43.44653" lon="3.45065">
        <ele>54.93</ele>
        <time>2019-03-27T09:06:48Z</time>
      </trkpt>
      <trkpt lat="43.44653" lon="3.45076">
        <ele>54.93</ele>
        <time>2019-03-27T09:06:57Z</time>
      </trkpt>
      <trkpt lat="43.44649" lon="3.45089">
        <ele>55.41</ele>
        <time>2019-03-27T09:07:05Z</time>
      </trkpt>
      <trkpt lat="43.44648" lon="3.45102">
        <ele>55.41</ele>
        <time>2019-03-27T09:07:13Z</time>
      </trkpt>
      <trkpt lat="43.44643" lon="3.45112">
        <ele>55.89</ele>
        <time>2019-03-27T09:07:22Z</time>
      </trkpt>
      <trkpt lat="43.44636" lon="3.4512">
        <ele>57.82</ele>
        <time>2019-03-27T09:07:35Z</time>
      </trkpt>
      <trkpt lat="43.44628" lon="3.45126">
        <ele>58.78</ele>
        <time>2019-03-27T09:07:45Z</time>
      </trkpt>
      <trkpt lat="43.44619" lon="3.45123">
        <ele>59.74</ele>
        <time>2019-03-27T09:07:55Z</time>
      </trkpt>
      <trkpt lat="43.4461" lon="3.45118">
        <ele>60.7</ele>
        <time>2019-03-27T09:08:06Z</time>
      </trkpt>
      <trkpt lat="43.446" lon="3.45113">
        <ele>61.18</ele>
        <time>2019-03-27T09:08:17Z</time>
      </trkpt>
      <trkpt lat="43.44591" lon="3.45111">
        <ele>62.62</ele>
        <time>2019-03-27T09:08:29Z</time>
      </trkpt>
      <trkpt lat="43.4458" lon="3.45111">
        <ele>63.58</ele>
        <time>2019-03-27T09:08:40Z</time>
      </trkpt>
      <trkpt lat="43.4457" lon="3.4511">
        <ele>64.55</ele>
        <time>2019-03-27T09:08:52Z</time>
      </trkpt>
      <trkpt lat="43.44562" lon="3.45108">
        <ele>66.47</ele>
        <time>2019-03-27T09:09:05Z</time>
      </trkpt>
      <trkpt lat="43.44552" lon="3.45105">
        <ele>67.91</ele>
        <time>2019-03-27T09:09:20Z</time>
      </trkpt>
      <trkpt lat="43.44546" lon="3.45096">
        <ele>68.39</ele>
        <time>2019-03-27T09:09:32Z</time>
      </trkpt>
      <trkpt lat="43.44538" lon="3.45092">
        <ele>68.87</ele>
        <time>2019-03-27T09:09:43Z</time>
      </trkpt>
      <trkpt lat="43.44528" lon="3.45091">
        <ele>68.87</ele>
        <time>2019-03-27T09:09:52Z</time>
      </trkpt>
      <trkpt lat="43.4452" lon="3.45089">
        <ele>68.87</ele>
        <time>2019-03-27T09:10:02Z</time>
      </trkpt>
      <trkpt lat="43.44512" lon="3.45085">
        <ele>69.35</ele>
        <time>2019-03-27T09:10:12Z</time>
      </trkpt>
      <trkpt lat="43.44503" lon="3.45085">
        <ele>68.87</ele>
        <time>2019-03-27T09:10:25Z</time>
      </trkpt>
      <trkpt lat="43.44495" lon="3.45092">
        <ele>68.39</ele>
        <time>2019-03-27T09:10:36Z</time>
      </trkpt>
      <trkpt lat="43.44487" lon="3.45097">
        <ele>67.91</ele>
        <time>2019-03-27T09:10:46Z</time>
      </trkpt>
      <trkpt lat="43.44478" lon="3.451">
        <ele>68.39</ele>
        <time>2019-03-27T09:10:56Z</time>
      </trkpt>
      <trkpt lat="43.44469" lon="3.45108">
        <ele>67.91</ele>
        <time>2019-03-27T09:11:06Z</time>
      </trkpt>
      <trkpt lat="43.44461" lon="3.45113">
        <ele>68.39</ele>
        <time>2019-03-27T09:11:16Z</time>
      </trkpt>
      <trkpt lat="43.44451" lon="3.45117">
        <ele>68.39</ele>
        <time>2019-03-27T09:11:26Z</time>
      </trkpt>
      <trkpt lat="43.44442" lon="3.45123">
        <ele>68.87</ele>
        <time>2019-03-27T09:11:36Z</time>
      </trkpt>
      <trkpt lat="43.44433" lon="3.45123">
        <ele>69.35</ele>
        <time>2019-03-27T09:11:51Z</time>
      </trkpt>
      <trkpt lat="43.44423" lon="3.45125">
        <ele>68.87</ele>
        <time>2019-03-27T09:12:00Z</time>
      </trkpt>
      <trkpt lat="43.44417" lon="3.45134">
        <ele>68.87</ele>
        <time>2019-03-27T09:12:10Z</time>
      </trkpt>
      <trkpt lat="43.4441" lon="3.45145">
        <ele>68.87</ele>
        <time>2019-03-27T09:12:21Z</time>
      </trkpt>
      <trkpt lat="43.44403" lon="3.45154">
        <ele>68.39</ele>
        <time>2019-03-27T09:12:31Z</time>
      </trkpt>
      <trkpt lat="43.44396" lon="3.45163">
        <ele>68.39</ele>
        <time>2019-03-27T09:12:41Z</time>
      </trkpt>
      <trkpt lat="43.4439" lon="3.45166">
        <ele>67.91</ele>
        <time>2019-03-27T09:13:01Z</time>
      </trkpt>
      <trkpt lat="43.44382" lon="3.45174">
        <ele>66.95</ele>
        <time>2019-03-27T09:13:14Z</time>
      </trkpt>
      <trkpt lat="43.44374" lon="3.45179">
        <ele>66.47</ele>
        <time>2019-03-27T09:13:26Z</time>
      </trkpt>
      <trkpt lat="43.44364" lon="3.45183">
        <ele>65.03</ele>
        <time>2019-03-27T09:13:35Z</time>
      </trkpt>
      <trkpt lat="43.44355" lon="3.45185">
        <ele>64.07</ele>
        <time>2019-03-27T09:13:44Z</time>
      </trkpt>
      <trkpt lat="43.44346" lon="3.45189">
        <ele>63.1</ele>
        <time>2019-03-27T09:13:54Z</time>
      </trkpt>
      <trkpt lat="43.44336" lon="3.45191">
        <ele>62.14</ele>
        <time>2019-03-27T09:14:04Z</time>
      </trkpt>
      <trkpt lat="43.44326" lon="3.45192">
        <ele>61.18</ele>
        <time>2019-03-27T09:14:13Z</time>
      </trkpt>
      <trkpt lat="43.44317" lon="3.45192">
        <ele>60.7</ele>
        <time>2019-03-27T09:14:22Z</time>
      </trkpt>
      <trkpt lat="43.44308" lon="3.4519">
        <ele>60.22</ele>
        <time>2019-03-27T09:14:34Z</time>
      </trkpt>
      <trkpt lat="43.443" lon="3.45186">
        <ele>60.22</ele>
        <time>2019-03-27T09:15:22Z</time>
      </trkpt>
      <trkpt lat="43.44292" lon="3.45188">
        <ele>59.74</ele>
        <time>2019-03-27T09:15:50Z</time>
      </trkpt>
      <trkpt lat="43.44298" lon="3.45185">
        <ele>60.22</ele>
        <time>2019-03-27T09:16:44Z</time>
      </trkpt>
      <trkpt lat="43.44293" lon="3.45188">
        <ele>60.7</ele>
        <time>2019-03-27T09:17:56Z</time>
      </trkpt>
      <trkpt lat="43.44287" lon="3.45197">
        <ele>60.7</ele>
        <time>2019-03-27T09:18:05Z</time>
      </trkpt>
      <trkpt lat="43.44283" lon="3.45209">
        <ele>60.22</ele>
        <time>2019-03-27T09:18:14Z</time>
      </trkpt>
      <trkpt lat="43.44277" lon="3.45221">
        <ele>60.7</ele>
        <time>2019-03-27T09:18:23Z</time>
      </trkpt>
      <trkpt lat="43.44272" lon="3.45232">
        <ele>60.22</ele>
        <time>2019-03-27T09:18:33Z</time>
      </trkpt>
      <trkpt lat="43.44267" lon="3.45244">
        <ele>58.78</ele>
        <time>2019-03-27T09:18:43Z</time>
      </trkpt>
      <trkpt lat="43.44262" lon="3.45253">
        <ele>58.78</ele>
        <time>2019-03-27T09:18:53Z</time>
      </trkpt>
      <trkpt lat="43.44258" lon="3.45264">
        <ele>57.82</ele>
        <time>2019-03-27T09:19:15Z</time>
      </trkpt>
      <trkpt lat="43.44252" lon="3.45274">
        <ele>57.34</ele>
        <time>2019-03-27T09:19:24Z</time>
      </trkpt>
      <trkpt lat="43.44245" lon="3.45285">
        <ele>56.37</ele>
        <time>2019-03-27T09:19:33Z</time>
      </trkpt>
      <trkpt lat="43.4424" lon="3.45295">
        <ele>55.41</ele>
        <time>2019-03-27T09:19:42Z</time>
      </trkpt>
      <trkpt lat="43.44235" lon="3.45305">
        <ele>54.93</ele>
        <time>2019-03-27T09:19:51Z</time>
      </trkpt>
      <trkpt lat="43.44228" lon="3.45316">
        <ele>54.45</ele>
        <time>2019-03-27T09:20:00Z</time>
      </trkpt>
      <trkpt lat="43.44222" lon="3.45327">
        <ele>53.49</ele>
        <time>2019-03-27T09:20:09Z</time>
      </trkpt>
      <trkpt lat="43.44217" lon="3.45334">
        <ele>53.01</ele>
        <time>2019-03-27T09:20:26Z</time>
      </trkpt>
      <trkpt lat="43.4421" lon="3.45345">
        <ele>52.05</ele>
        <time>2019-03-27T09:20:33Z</time>
      </trkpt>
      <trkpt lat="43.44205" lon="3.45356">
        <ele>51.09</ele>
        <time>2019-03-27T09:20:47Z</time>
      </trkpt>
      <trkpt lat="43.442" lon="3.45367">
        <ele>50.13</ele>
        <time>2019-03-27T09:20:56Z</time>
      </trkpt>
      <trkpt lat="43.44193" lon="3.45378">
        <ele>50.13</ele>
        <time>2019-03-27T09:21:06Z</time>
      </trkpt>
      <trkpt lat="43.44187" lon="3.4539">
        <ele>49.16</ele>
        <time>2019-03-27T09:21:17Z</time>
      </trkpt>
      <trkpt lat="43.44183" lon="3.45402">
        <ele>48.2</ele>
        <time>2019-03-27T09:21:26Z</time>
      </trkpt>
      <trkpt lat="43.44181" lon="3.45414">
        <ele>47.24</ele>
        <time>2019-03-27T09:21:36Z</time>
      </trkpt>
      <trkpt lat="43.44179" lon="3.45428">
        <ele>45.8</ele>
        <time>2019-03-27T09:21:45Z</time>
      </trkpt>
      <trkpt lat="43.44177" lon="3.45441">
        <ele>45.8</ele>
        <time>2019-03-27T09:21:54Z</time>
      </trkpt>
      <trkpt lat="43.44176" lon="3.45453">
        <ele>45.32</ele>
        <time>2019-03-27T09:22:02Z</time>
      </trkpt>
      <trkpt lat="43.44173" lon="3.45464">
        <ele>44.84</ele>
        <time>2019-03-27T09:22:10Z</time>
      </trkpt>
      <trkpt lat="43.44167" lon="3.45474">
        <ele>44.36</ele>
        <time>2019-03-27T09:22:19Z</time>
      </trkpt>
      <trkpt lat="43.44157" lon="3.45478">
        <ele>44.36</ele>
        <time>2019-03-27T09:22:28Z</time>
      </trkpt>
      <trkpt lat="43.44147" lon="3.45481">
        <ele>44.36</ele>
        <time>2019-03-27T09:22:46Z</time>
      </trkpt>
      <trkpt lat="43.4414" lon="3.45489">
        <ele>45.8</ele>
        <time>2019-03-27T09:23:05Z</time>
      </trkpt>
      <trkpt lat="43.44133" lon="3.45502">
        <ele>46.76</ele>
        <time>2019-03-27T09:23:13Z</time>
      </trkpt>
      <trkpt lat="43.44128" lon="3.45512">
        <ele>47.72</ele>
        <time>2019-03-27T09:23:21Z</time>
      </trkpt>
      <trkpt lat="43.44124" lon="3.45524">
        <ele>48.68</ele>
        <time>2019-03-27T09:23:31Z</time>
      </trkpt>
      <trkpt lat="43.44122" lon="3.45538">
        <ele>49.16</ele>
        <time>2019-03-27T09:23:41Z</time>
      </trkpt>
      <trkpt lat="43.44117" lon="3.45549">
        <ele>50.13</ele>
        <time>2019-03-27T09:23:50Z</time>
      </trkpt>
      <trkpt lat="43.44113" lon="3.45561">
        <ele>50.13</ele>
        <time>2019-03-27T09:24:01Z</time>
      </trkpt>
      <trkpt lat="43.4411" lon="3.45575">
        <ele>51.09</ele>
        <time>2019-03-27T09:24:11Z</time>
      </trkpt>
      <trkpt lat="43.44107" lon="3.45589">
        <ele>52.05</ele>
        <time>2019-03-27T09:24:21Z</time>
      </trkpt>
      <trkpt lat="43.441" lon="3.45602">
        <ele>53.49</ele>
        <time>2019-03-27T09:24:33Z</time>
      </trkpt>
      <trkpt lat="43.44093" lon="3.45616">
        <ele>54.93</ele>
        <time>2019-03-27T09:24:46Z</time>
      </trkpt>
      <trkpt lat="43.44086" lon="3.45628">
        <ele>55.41</ele>
        <time>2019-03-27T09:24:56Z</time>
      </trkpt>
      <trkpt lat="43.44079" lon="3.45638">
        <ele>55.89</ele>
        <time>2019-03-27T09:25:06Z</time>
      </trkpt>
      <trkpt lat="43.44074" lon="3.45648">
        <ele>56.37</ele>
        <time>2019-03-27T09:25:15Z</time>
      </trkpt>
      <trkpt lat="43.44067" lon="3.45658">
        <ele>57.34</ele>
        <time>2019-03-27T09:25:25Z</time>
      </trkpt>
      <trkpt lat="43.44062" lon="3.4567">
        <ele>57.34</ele>
        <time>2019-03-27T09:25:35Z</time>
      </trkpt>
      <trkpt lat="43.44056" lon="3.45678">
        <ele>56.86</ele>
        <time>2019-03-27T09:25:51Z</time>
      </trkpt>
      <trkpt lat="43.44056" lon="3.45677">
        <ele>57.34</ele>
        <time>2019-03-27T09:26:31Z</time>
      </trkpt>
      <trkpt lat="43.44058" lon="3.45677">
        <ele>56.37</ele>
        <time>2019-03-27T09:29:39Z</time>
      </trkpt>
      <trkpt lat="43.44058" lon="3.45681">
        <ele>56.37</ele>
        <time>2019-03-27T09:30:05Z</time>
      </trkpt>
      <trkpt lat="43.44063" lon="3.45693">
        <ele>56.37</ele>
        <time>2019-03-27T09:30:13Z</time>
      </trkpt>
      <trkpt lat="43.44064" lon="3.45704">
        <ele>56.86</ele>
        <time>2019-03-27T09:30:31Z</time>
      </trkpt>
      <trkpt lat="43.44068" lon="3.45716">
        <ele>56.86</ele>
        <time>2019-03-27T09:30:41Z</time>
      </trkpt>
      <trkpt lat="43.44073" lon="3.45728">
        <ele>56.86</ele>
        <time>2019-03-27T09:30:51Z</time>
      </trkpt>
      <trkpt lat="43.44076" lon="3.4574">
        <ele>56.86</ele>
        <time>2019-03-27T09:31:01Z</time>
      </trkpt>
      <trkpt lat="43.44082" lon="3.45751">
        <ele>56.37</ele>
        <time>2019-03-27T09:31:10Z</time>
      </trkpt>
      <trkpt lat="43.44087" lon="3.45761">
        <ele>56.37</ele>
        <time>2019-03-27T09:31:19Z</time>
      </trkpt>
      <trkpt lat="43.44092" lon="3.45773">
        <ele>55.89</ele>
        <time>2019-03-27T09:31:28Z</time>
      </trkpt>
      <trkpt lat="43.44095" lon="3.45782">
        <ele>56.37</ele>
        <time>2019-03-27T09:31:45Z</time>
      </trkpt>
      <trkpt lat="43.44099" lon="3.45794">
        <ele>56.86</ele>
        <time>2019-03-27T09:31:54Z</time>
      </trkpt>
      <trkpt lat="43.44103" lon="3.45806">
        <ele>56.37</ele>
        <time>2019-03-27T09:32:04Z</time>
      </trkpt>
      <trkpt lat="43.44106" lon="3.45816">
        <ele>56.86</ele>
        <time>2019-03-27T09:32:13Z</time>
      </trkpt>
      <trkpt lat="43.44104" lon="3.45813">
        <ele>57.34</ele>
        <time>2019-03-27T09:32:52Z</time>
      </trkpt>
      <trkpt lat="43.44105" lon="3.45812">
        <ele>56.86</ele>
        <time>2019-03-27T09:33:02Z</time>
      </trkpt>
      <trkpt lat="43.44109" lon="3.45823">
        <ele>57.34</ele>
        <time>2019-03-27T09:33:10Z</time>
      </trkpt>
      <trkpt lat="43.44114" lon="3.45833">
        <ele>58.3</ele>
        <time>2019-03-27T09:33:18Z</time>
      </trkpt>
      <trkpt lat="43.44119" lon="3.45843">
        <ele>58.78</ele>
        <time>2019-03-27T09:33:30Z</time>
      </trkpt>
      <trkpt lat="43.44125" lon="3.45845">
        <ele>59.26</ele>
        <time>2019-03-27T09:35:55Z</time>
      </trkpt>
      <trkpt lat="43.44123" lon="3.45846">
        <ele>59.26</ele>
        <time>2019-03-27T09:37:51Z</time>
      </trkpt>
      <trkpt lat="43.44127" lon="3.45851">
        <ele>59.74</ele>
        <time>2019-03-27T09:38:46Z</time>
      </trkpt>
      <trkpt lat="43.44135" lon="3.4586">
        <ele>60.7</ele>
        <time>2019-03-27T09:38:56Z</time>
      </trkpt>
      <trkpt lat="43.44144" lon="3.45865">
        <ele>61.18</ele>
        <time>2019-03-27T09:39:11Z</time>
      </trkpt>
      <trkpt lat="43.44151" lon="3.45875">
        <ele>61.66</ele>
        <time>2019-03-27T09:39:22Z</time>
      </trkpt>
      <trkpt lat="43.44155" lon="3.45887">
        <ele>62.62</ele>
        <time>2019-03-27T09:39:30Z</time>
      </trkpt>
      <trkpt lat="43.44161" lon="3.45896">
        <ele>63.58</ele>
        <time>2019-03-27T09:39:39Z</time>
      </trkpt>
      <trkpt lat="43.44167" lon="3.45905">
        <ele>64.07</ele>
        <time>2019-03-27T09:39:49Z</time>
      </trkpt>
      <trkpt lat="43.44174" lon="3.45918">
        <ele>64.55</ele>
        <time>2019-03-27T09:39:58Z</time>
      </trkpt>
      <trkpt lat="43.44179" lon="3.45931">
        <ele>64.07</ele>
        <time>2019-03-27T09:40:07Z</time>
      </trkpt>
      <trkpt lat="43.44184" lon="3.4594">
        <ele>64.07</ele>
        <time>2019-03-27T09:40:16Z</time>
      </trkpt>
      <trkpt lat="43.44191" lon="3.45947">
        <ele>64.55</ele>
        <time>2019-03-27T09:40:26Z</time>
      </trkpt>
      <trkpt lat="43.44203" lon="3.45952">
        <ele>64.55</ele>
        <time>2019-03-27T09:40:37Z</time>
      </trkpt>
      <trkpt lat="43.44211" lon="3.4596">
        <ele>65.51</ele>
        <time>2019-03-27T09:40:46Z</time>
      </trkpt>
      <trkpt lat="43.4422" lon="3.45964">
        <ele>65.51</ele>
        <time>2019-03-27T09:40:56Z</time>
      </trkpt>
      <trkpt lat="43.44229" lon="3.45971">
        <ele>65.51</ele>
        <time>2019-03-27T09:41:06Z</time>
      </trkpt>
      <trkpt lat="43.44238" lon="3.45978">
        <ele>65.51</ele>
        <time>2019-03-27T09:41:16Z</time>
      </trkpt>
      <trkpt lat="43.44247" lon="3.45985">
        <ele>66.47</ele>
        <time>2019-03-27T09:41:27Z</time>
      </trkpt>
      <trkpt lat="43.44256" lon="3.45994">
        <ele>67.43</ele>
        <time>2019-03-27T09:41:36Z</time>
      </trkpt>
      <trkpt lat="43.44263" lon="3.46004">
        <ele>67.91</ele>
        <time>2019-03-27T09:41:45Z</time>
      </trkpt>
      <trkpt lat="43.4427" lon="3.46014">
        <ele>68.87</ele>
        <time>2019-03-27T09:41:55Z</time>
      </trkpt>
      <trkpt lat="43.44278" lon="3.46023">
        <ele>68.87</ele>
        <time>2019-03-27T09:42:06Z</time>
      </trkpt>
      <trkpt lat="43.44286" lon="3.46031">
        <ele>69.35</ele>
        <time>2019-03-27T09:42:17Z</time>
      </trkpt>
      <trkpt lat="43.44294" lon="3.46039">
        <ele>70.31</ele>
        <time>2019-03-27T09:42:28Z</time>
      </trkpt>
      <trkpt lat="43.44304" lon="3.46044">
        <ele>70.79</ele>
        <time>2019-03-27T09:42:38Z</time>
      </trkpt>
      <trkpt lat="43.44313" lon="3.46051">
        <ele>71.27</ele>
        <time>2019-03-27T09:42:48Z</time>
      </trkpt>
      <trkpt lat="43.44319" lon="3.46059">
        <ele>71.76</ele>
        <time>2019-03-27T09:43:46Z</time>
      </trkpt>
      <trkpt lat="43.44327" lon="3.46065">
        <ele>72.72</ele>
        <time>2019-03-27T09:43:55Z</time>
      </trkpt>
      <trkpt lat="43.44331" lon="3.46075">
        <ele>73.68</ele>
        <time>2019-03-27T09:44:06Z</time>
      </trkpt>
      <trkpt lat="43.44339" lon="3.46085">
        <ele>74.16</ele>
        <time>2019-03-27T09:44:17Z</time>
      </trkpt>
      <trkpt lat="43.44344" lon="3.46097">
        <ele>75.12</ele>
        <time>2019-03-27T09:44:28Z</time>
      </trkpt>
      <trkpt lat="43.44345" lon="3.4611">
        <ele>75.6</ele>
        <time>2019-03-27T09:44:39Z</time>
      </trkpt>
      <trkpt lat="43.44349" lon="3.46122">
        <ele>75.6</ele>
        <time>2019-03-27T09:44:49Z</time>
      </trkpt>
      <trkpt lat="43.44354" lon="3.46132">
        <ele>76.08</ele>
        <time>2019-03-27T09:44:59Z</time>
      </trkpt>
      <trkpt lat="43.44354" lon="3.46142">
        <ele>76.08</ele>
        <time>2019-03-27T09:45:39Z</time>
      </trkpt>
      <trkpt lat="43.44358" lon="3.46153">
        <ele>76.08</ele>
        <time>2019-03-27T09:45:49Z</time>
      </trkpt>
      <trkpt lat="43.44365" lon="3.46169">
        <ele>76.56</ele>
        <time>2019-03-27T09:46:00Z</time>
      </trkpt>
      <trkpt lat="43.44369" lon="3.4618">
        <ele>76.56</ele>
        <time>2019-03-27T09:46:11Z</time>
      </trkpt>
      <trkpt lat="43.44372" lon="3.46195">
        <ele>76.56</ele>
        <time>2019-03-27T09:46:28Z</time>
      </trkpt>
      <trkpt lat="43.4437" lon="3.46211">
        <ele>76.08</ele>
        <time>2019-03-27T09:46:41Z</time>
      </trkpt>
      <trkpt lat="43.44369" lon="3.46225">
        <ele>75.6</ele>
        <time>2019-03-27T09:47:05Z</time>
      </trkpt>
      <trkpt lat="43.44372" lon="3.46237">
        <ele>75.12</ele>
        <time>2019-03-27T09:47:17Z</time>
      </trkpt>
      <trkpt lat="43.44376" lon="3.46252">
        <ele>76.08</ele>
        <time>2019-03-27T09:47:31Z</time>
      </trkpt>
      <trkpt lat="43.44381" lon="3.46266">
        <ele>76.56</ele>
        <time>2019-03-27T09:47:42Z</time>
      </trkpt>
      <trkpt lat="43.44386" lon="3.46277">
        <ele>77.04</ele>
        <time>2019-03-27T09:47:55Z</time>
      </trkpt>
      <trkpt lat="43.44393" lon="3.46287">
        <ele>77.04</ele>
        <time>2019-03-27T09:48:05Z</time>
      </trkpt>
      <trkpt lat="43.44398" lon="3.46298">
        <ele>77.52</ele>
        <time>2019-03-27T09:48:16Z</time>
      </trkpt>
      <trkpt lat="43.44406" lon="3.46308">
        <ele>78</ele>
        <time>2019-03-27T09:48:27Z</time>
      </trkpt>
      <trkpt lat="43.44413" lon="3.46319">
        <ele>78.97</ele>
        <time>2019-03-27T09:48:38Z</time>
      </trkpt>
      <trkpt lat="43.4442" lon="3.4633">
        <ele>79.45</ele>
        <time>2019-03-27T09:48:50Z</time>
      </trkpt>
      <trkpt lat="43.44424" lon="3.46342">
        <ele>79.45</ele>
        <time>2019-03-27T09:49:01Z</time>
      </trkpt>
      <trkpt lat="43.44428" lon="3.46357">
        <ele>79.93</ele>
        <time>2019-03-27T09:49:12Z</time>
      </trkpt>
      <trkpt lat="43.4443" lon="3.46371">
        <ele>79.93</ele>
        <time>2019-03-27T09:49:25Z</time>
      </trkpt>
      <trkpt lat="43.44429" lon="3.46387">
        <ele>79.93</ele>
        <time>2019-03-27T09:49:35Z</time>
      </trkpt>
      <trkpt lat="43.4443" lon="3.46402">
        <ele>79.45</ele>
        <time>2019-03-27T09:49:45Z</time>
      </trkpt>
      <trkpt lat="43.44429" lon="3.46417">
        <ele>78.97</ele>
        <time>2019-03-27T09:49:55Z</time>
      </trkpt>
      <trkpt lat="43.44428" lon="3.4643">
        <ele>79.45</ele>
        <time>2019-03-27T09:50:04Z</time>
      </trkpt>
      <trkpt lat="43.44428" lon="3.46441">
        <ele>78.97</ele>
        <time>2019-03-27T09:50:14Z</time>
      </trkpt>
      <trkpt lat="43.4443" lon="3.46443">
        <ele>78.97</ele>
        <time>2019-03-27T09:50:25Z</time>
      </trkpt>
      <trkpt lat="43.44434" lon="3.46454">
        <ele>79.45</ele>
        <time>2019-03-27T09:50:35Z</time>
      </trkpt>
      <trkpt lat="43.44439" lon="3.46466">
        <ele>79.93</ele>
        <time>2019-03-27T09:50:45Z</time>
      </trkpt>
      <trkpt lat="43.44446" lon="3.46476">
        <ele>79.93</ele>
        <time>2019-03-27T09:50:54Z</time>
      </trkpt>
      <trkpt lat="43.44454" lon="3.46482">
        <ele>79.93</ele>
        <time>2019-03-27T09:51:04Z</time>
      </trkpt>
      <trkpt lat="43.44465" lon="3.46484">
        <ele>80.89</ele>
        <time>2019-03-27T09:51:14Z</time>
      </trkpt>
      <trkpt lat="43.44472" lon="3.46492">
        <ele>80.89</ele>
        <time>2019-03-27T09:51:23Z</time>
      </trkpt>
      <trkpt lat="43.44479" lon="3.46503">
        <ele>80.41</ele>
        <time>2019-03-27T09:51:36Z</time>
      </trkpt>
      <trkpt lat="43.44485" lon="3.46515">
        <ele>80.89</ele>
        <time>2019-03-27T09:51:49Z</time>
      </trkpt>
      <trkpt lat="43.44491" lon="3.46529">
        <ele>80.89</ele>
        <time>2019-03-27T09:52:01Z</time>
      </trkpt>
      <trkpt lat="43.44494" lon="3.46535">
        <ele>81.37</ele>
        <time>2019-03-27T09:54:08Z</time>
      </trkpt>
      <trkpt lat="43.44489" lon="3.46542">
        <ele>81.37</ele>
        <time>2019-03-27T09:56:35Z</time>
      </trkpt>
      <trkpt lat="43.44482" lon="3.46553">
        <ele>80.89</ele>
        <time>2019-03-27T09:56:45Z</time>
      </trkpt>
      <trkpt lat="43.44475" lon="3.46563">
        <ele>80.89</ele>
        <time>2019-03-27T09:56:54Z</time>
      </trkpt>
      <trkpt lat="43.44469" lon="3.46576">
        <ele>80.89</ele>
        <time>2019-03-27T09:57:03Z</time>
      </trkpt>
      <trkpt lat="43.44466" lon="3.46589">
        <ele>81.37</ele>
        <time>2019-03-27T09:57:13Z</time>
      </trkpt>
      <trkpt lat="43.44465" lon="3.46603">
        <ele>81.37</ele>
        <time>2019-03-27T09:57:23Z</time>
      </trkpt>
      <trkpt lat="43.44461" lon="3.46615">
        <ele>81.85</ele>
        <time>2019-03-27T09:57:34Z</time>
      </trkpt>
      <trkpt lat="43.44455" lon="3.46624">
        <ele>82.81</ele>
        <time>2019-03-27T09:58:13Z</time>
      </trkpt>
      <trkpt lat="43.44451" lon="3.46632">
        <ele>81.85</ele>
        <time>2019-03-27T09:58:34Z</time>
      </trkpt>
      <trkpt lat="43.44447" lon="3.46643">
        <ele>81.37</ele>
        <time>2019-03-27T09:58:44Z</time>
      </trkpt>
      <trkpt lat="43.44441" lon="3.46653">
        <ele>81.37</ele>
        <time>2019-03-27T09:59:02Z</time>
      </trkpt>
      <trkpt lat="43.4444" lon="3.46667">
        <ele>81.37</ele>
        <time>2019-03-27T09:59:11Z</time>
      </trkpt>
      <trkpt lat="43.44439" lon="3.46681">
        <ele>82.33</ele>
        <time>2019-03-27T09:59:22Z</time>
      </trkpt>
      <trkpt lat="43.44438" lon="3.46693">
        <ele>82.33</ele>
        <time>2019-03-27T09:59:33Z</time>
      </trkpt>
      <trkpt lat="43.44436" lon="3.46706">
        <ele>82.33</ele>
        <time>2019-03-27T09:59:42Z</time>
      </trkpt>
      <trkpt lat="43.44435" lon="3.46719">
        <ele>82.81</ele>
        <time>2019-03-27T09:59:51Z</time>
      </trkpt>
      <trkpt lat="43.44434" lon="3.46731">
        <ele>82.33</ele>
        <time>2019-03-27T10:00:00Z</time>
      </trkpt>
      <trkpt lat="43.44435" lon="3.46745">
        <ele>81.37</ele>
        <time>2019-03-27T10:00:10Z</time>
      </trkpt>
      <trkpt lat="43.44435" lon="3.46759">
        <ele>81.37</ele>
        <time>2019-03-27T10:00:19Z</time>
      </trkpt>
      <trkpt lat="43.44437" lon="3.46773">
        <ele>80.41</ele>
        <time>2019-03-27T10:00:29Z</time>
      </trkpt>
      <trkpt lat="43.44443" lon="3.46785">
        <ele>80.41</ele>
        <time>2019-03-27T10:00:38Z</time>
      </trkpt>
      <trkpt lat="43.44447" lon="3.46794">
        <ele>79.93</ele>
        <time>2019-03-27T10:00:46Z</time>
      </trkpt>
      <trkpt lat="43.44449" lon="3.46809">
        <ele>80.41</ele>
        <time>2019-03-27T10:00:55Z</time>
      </trkpt>
      <trkpt lat="43.44452" lon="3.46822">
        <ele>80.41</ele>
        <time>2019-03-27T10:01:04Z</time>
      </trkpt>
      <trkpt lat="43.44458" lon="3.46832">
        <ele>79.93</ele>
        <time>2019-03-27T10:01:13Z</time>
      </trkpt>
      <trkpt lat="43.44463" lon="3.46842">
        <ele>80.41</ele>
        <time>2019-03-27T10:01:22Z</time>
      </trkpt>
      <trkpt lat="43.44469" lon="3.46854">
        <ele>80.89</ele>
        <time>2019-03-27T10:01:31Z</time>
      </trkpt>
      <trkpt lat="43.44473" lon="3.46863">
        <ele>81.37</ele>
        <time>2019-03-27T10:01:40Z</time>
      </trkpt>
      <trkpt lat="43.44479" lon="3.46871">
        <ele>81.85</ele>
        <time>2019-03-27T10:02:14Z</time>
      </trkpt>
      <trkpt lat="43.44487" lon="3.46878">
        <ele>82.33</ele>
        <time>2019-03-27T10:02:31Z</time>
      </trkpt>
      <trkpt lat="43.44489" lon="3.46883">
        <ele>82.81</ele>
        <time>2019-03-27T10:05:07Z</time>
      </trkpt>
      <trkpt lat="43.4449" lon="3.46898">
        <ele>83.29</ele>
        <time>2019-03-27T10:05:29Z</time>
      </trkpt>
      <trkpt lat="43.44492" lon="3.46913">
        <ele>83.29</ele>
        <time>2019-03-27T10:05:42Z</time>
      </trkpt>
      <trkpt lat="43.44495" lon="3.46929">
        <ele>83.29</ele>
        <time>2019-03-27T10:05:53Z</time>
      </trkpt>
      <trkpt lat="43.44499" lon="3.46943">
        <ele>84.25</ele>
        <time>2019-03-27T10:06:02Z</time>
      </trkpt>
      <trkpt lat="43.445" lon="3.46956">
        <ele>84.73</ele>
        <time>2019-03-27T10:06:11Z</time>
      </trkpt>
      <trkpt lat="43.44501" lon="3.46969">
        <ele>85.69</ele>
        <time>2019-03-27T10:06:21Z</time>
      </trkpt>
      <trkpt lat="43.44505" lon="3.46982">
        <ele>86.18</ele>
        <time>2019-03-27T10:06:33Z</time>
      </trkpt>
      <trkpt lat="43.44507" lon="3.46994">
        <ele>86.18</ele>
        <time>2019-03-27T10:07:08Z</time>
      </trkpt>
      <trkpt lat="43.4451" lon="3.47007">
        <ele>85.21</ele>
        <time>2019-03-27T10:07:16Z</time>
      </trkpt>
      <trkpt lat="43.44513" lon="3.47021">
        <ele>85.21</ele>
        <time>2019-03-27T10:07:25Z</time>
      </trkpt>
      <trkpt lat="43.44517" lon="3.47033">
        <ele>85.21</ele>
        <time>2019-03-27T10:07:33Z</time>
      </trkpt>
      <trkpt lat="43.44519" lon="3.47045">
        <ele>85.21</ele>
        <time>2019-03-27T10:07:42Z</time>
      </trkpt>
      <trkpt lat="43.44515" lon="3.47058">
        <ele>84.25</ele>
        <time>2019-03-27T10:07:53Z</time>
      </trkpt>
      <trkpt lat="43.4451" lon="3.47069">
        <ele>83.77</ele>
        <time>2019-03-27T10:08:03Z</time>
      </trkpt>
      <trkpt lat="43.44505" lon="3.4708">
        <ele>83.29</ele>
        <time>2019-03-27T10:08:12Z</time>
      </trkpt>
      <trkpt lat="43.44504" lon="3.47094">
        <ele>82.81</ele>
        <time>2019-03-27T10:08:21Z</time>
      </trkpt>
      <trkpt lat="43.44509" lon="3.47106">
        <ele>82.81</ele>
        <time>2019-03-27T10:08:30Z</time>
      </trkpt>
      <trkpt lat="43.44513" lon="3.47119">
        <ele>82.81</ele>
        <time>2019-03-27T10:08:39Z</time>
      </trkpt>
      <trkpt lat="43.44515" lon="3.47133">
        <ele>83.29</ele>
        <time>2019-03-27T10:08:51Z</time>
      </trkpt>
      <trkpt lat="43.44522" lon="3.47146">
        <ele>83.77</ele>
        <time>2019-03-27T10:09:01Z</time>
      </trkpt>
      <trkpt lat="43.44527" lon="3.4716">
        <ele>84.25</ele>
        <time>2019-03-27T10:09:13Z</time>
      </trkpt>
      <trkpt lat="43.44531" lon="3.47172">
        <ele>84.73</ele>
        <time>2019-03-27T10:09:23Z</time>
      </trkpt>
      <trkpt lat="43.44532" lon="3.47186">
        <ele>85.69</ele>
        <time>2019-03-27T10:09:34Z</time>
      </trkpt>
      <trkpt lat="43.44533" lon="3.47201">
        <ele>86.18</ele>
        <time>2019-03-27T10:09:45Z</time>
      </trkpt>
      <trkpt lat="43.44533" lon="3.47216">
        <ele>87.14</ele>
        <time>2019-03-27T10:09:56Z</time>
      </trkpt>
      <trkpt lat="43.44529" lon="3.47229">
        <ele>87.14</ele>
        <time>2019-03-27T10:10:07Z</time>
      </trkpt>
      <trkpt lat="43.4453" lon="3.47244">
        <ele>87.62</ele>
        <time>2019-03-27T10:10:17Z</time>
      </trkpt>
      <trkpt lat="43.44532" lon="3.47257">
        <ele>87.62</ele>
        <time>2019-03-27T10:10:27Z</time>
      </trkpt>
      <trkpt lat="43.44533" lon="3.47272">
        <ele>88.1</ele>
        <time>2019-03-27T10:10:37Z</time>
      </trkpt>
      <trkpt lat="43.44531" lon="3.47286">
        <ele>88.1</ele>
        <time>2019-03-27T10:10:47Z</time>
      </trkpt>
      <trkpt lat="43.4453" lon="3.47299">
        <ele>88.1</ele>
        <time>2019-03-27T10:10:56Z</time>
      </trkpt>
      <trkpt lat="43.4453" lon="3.47311">
        <ele>88.1</ele>
        <time>2019-03-27T10:11:05Z</time>
      </trkpt>
      <trkpt lat="43.44527" lon="3.47322">
        <ele>87.62</ele>
        <time>2019-03-27T10:11:50Z</time>
      </trkpt>
      <trkpt lat="43.4452" lon="3.47326">
        <ele>87.14</ele>
        <time>2019-03-27T10:12:17Z</time>
      </trkpt>
      <trkpt lat="43.44513" lon="3.47336">
        <ele>87.14</ele>
        <time>2019-03-27T10:12:27Z</time>
      </trkpt>
      <trkpt lat="43.44507" lon="3.47348">
        <ele>86.66</ele>
        <time>2019-03-27T10:12:37Z</time>
      </trkpt>
      <trkpt lat="43.44501" lon="3.47359">
        <ele>86.66</ele>
        <time>2019-03-27T10:12:47Z</time>
      </trkpt>
      <trkpt lat="43.44496" lon="3.47367">
        <ele>87.14</ele>
        <time>2019-03-27T10:13:43Z</time>
      </trkpt>
      <trkpt lat="43.44493" lon="3.47368">
        <ele>87.14</ele>
        <time>2019-03-27T10:14:33Z</time>
      </trkpt>
      <trkpt lat="43.44485" lon="3.47371">
        <ele>87.14</ele>
        <time>2019-03-27T10:14:49Z</time>
      </trkpt>
      <trkpt lat="43.44473" lon="3.47373">
        <ele>87.14</ele>
        <time>2019-03-27T10:15:05Z</time>
      </trkpt>
      <trkpt lat="43.44461" lon="3.47369">
        <ele>87.14</ele>
        <time>2019-03-27T10:15:15Z</time>
      </trkpt>
      <trkpt lat="43.4445" lon="3.47363">
        <ele>87.14</ele>
        <time>2019-03-27T10:15:25Z</time>
      </trkpt>
      <trkpt lat="43.44439" lon="3.47362">
        <ele>86.66</ele>
        <time>2019-03-27T10:15:35Z</time>
      </trkpt>
      <trkpt lat="43.44431" lon="3.4736">
        <ele>86.66</ele>
        <time>2019-03-27T10:15:52Z</time>
      </trkpt>
      <trkpt lat="43.44422" lon="3.47365">
        <ele>86.66</ele>
        <time>2019-03-27T10:16:01Z</time>
      </trkpt>
      <trkpt lat="43.44416" lon="3.47376">
        <ele>86.66</ele>
        <time>2019-03-27T10:16:11Z</time>
      </trkpt>
      <trkpt lat="43.44412" lon="3.47389">
        <ele>87.14</ele>
        <time>2019-03-27T10:16:21Z</time>
      </trkpt>
      <trkpt lat="43.44412" lon="3.47403">
        <ele>88.1</ele>
        <time>2019-03-27T10:16:30Z</time>
      </trkpt>
      <trkpt lat="43.44413" lon="3.47417">
        <ele>88.58</ele>
        <time>2019-03-27T10:16:41Z</time>
      </trkpt>
      <trkpt lat="43.44414" lon="3.47428">
        <ele>88.58</ele>
        <time>2019-03-27T10:16:50Z</time>
      </trkpt>
      <trkpt lat="43.44415" lon="3.47441">
        <ele>89.06</ele>
        <time>2019-03-27T10:16:59Z</time>
      </trkpt>
      <trkpt lat="43.44411" lon="3.47453">
        <ele>89.06</ele>
        <time>2019-03-27T10:17:08Z</time>
      </trkpt>
      <trkpt lat="43.44405" lon="3.47464">
        <ele>89.54</ele>
        <time>2019-03-27T10:17:17Z</time>
      </trkpt>
      <trkpt lat="43.44396" lon="3.47472">
        <ele>89.54</ele>
        <time>2019-03-27T10:17:27Z</time>
      </trkpt>
      <trkpt lat="43.44388" lon="3.47479">
        <ele>90.02</ele>
        <time>2019-03-27T10:17:37Z</time>
      </trkpt>
      <trkpt lat="43.44378" lon="3.47486">
        <ele>90.02</ele>
        <time>2019-03-27T10:17:47Z</time>
      </trkpt>
      <trkpt lat="43.44369" lon="3.47489">
        <ele>89.54</ele>
        <time>2019-03-27T10:17:56Z</time>
      </trkpt>
      <trkpt lat="43.44358" lon="3.4749">
        <ele>89.54</ele>
        <time>2019-03-27T10:18:06Z</time>
      </trkpt>
      <trkpt lat="43.4435" lon="3.47497">
        <ele>90.02</ele>
        <time>2019-03-27T10:18:16Z</time>
      </trkpt>
      <trkpt lat="43.44343" lon="3.47506">
        <ele>90.5</ele>
        <time>2019-03-27T10:18:26Z</time>
      </trkpt>
      <trkpt lat="43.44336" lon="3.47514">
        <ele>90.98</ele>
        <time>2019-03-27T10:18:36Z</time>
      </trkpt>
      <trkpt lat="43.44328" lon="3.47523">
        <ele>90.5</ele>
        <time>2019-03-27T10:18:45Z</time>
      </trkpt>
      <trkpt lat="43.44322" lon="3.47533">
        <ele>90.5</ele>
        <time>2019-03-27T10:18:54Z</time>
      </trkpt>
      <trkpt lat="43.44317" lon="3.47543">
        <ele>90.02</ele>
        <time>2019-03-27T10:19:03Z</time>
      </trkpt>
      <trkpt lat="43.44312" lon="3.47554">
        <ele>90.02</ele>
        <time>2019-03-27T10:19:12Z</time>
      </trkpt>
      <trkpt lat="43.44308" lon="3.47567">
        <ele>90.02</ele>
        <time>2019-03-27T10:19:21Z</time>
      </trkpt>
      <trkpt lat="43.44306" lon="3.4758">
        <ele>89.54</ele>
        <time>2019-03-27T10:19:30Z</time>
      </trkpt>
      <trkpt lat="43.44304" lon="3.47594">
        <ele>89.06</ele>
        <time>2019-03-27T10:19:40Z</time>
      </trkpt>
      <trkpt lat="43.44301" lon="3.47605">
        <ele>88.1</ele>
        <time>2019-03-27T10:19:49Z</time>
      </trkpt>
      <trkpt lat="43.44297" lon="3.47619">
        <ele>87.62</ele>
        <time>2019-03-27T10:19:59Z</time>
      </trkpt>
      <trkpt lat="43.44294" lon="3.4763">
        <ele>87.14</ele>
        <time>2019-03-27T10:20:13Z</time>
      </trkpt>
      <trkpt lat="43.44291" lon="3.47642">
        <ele>86.66</ele>
        <time>2019-03-27T10:20:22Z</time>
      </trkpt>
      <trkpt lat="43.44287" lon="3.47654">
        <ele>86.66</ele>
        <time>2019-03-27T10:20:31Z</time>
      </trkpt>
      <trkpt lat="43.44284" lon="3.47667">
        <ele>86.18</ele>
        <time>2019-03-27T10:20:40Z</time>
      </trkpt>
      <trkpt lat="43.4428" lon="3.47679">
        <ele>86.18</ele>
        <time>2019-03-27T10:20:49Z</time>
      </trkpt>
      <trkpt lat="43.44277" lon="3.47691">
        <ele>86.18</ele>
        <time>2019-03-27T10:20:58Z</time>
      </trkpt>
      <trkpt lat="43.44275" lon="3.47705">
        <ele>85.69</ele>
        <time>2019-03-27T10:21:08Z</time>
      </trkpt>
      <trkpt lat="43.44274" lon="3.47718">
        <ele>84.73</ele>
        <time>2019-03-27T10:21:18Z</time>
      </trkpt>
      <trkpt lat="43.44277" lon="3.47729">
        <ele>83.77</ele>
        <time>2019-03-27T10:21:37Z</time>
      </trkpt>
      <trkpt lat="43.44279" lon="3.47738">
        <ele>83.77</ele>
        <time>2019-03-27T10:21:49Z</time>
      </trkpt>
      <trkpt lat="43.44283" lon="3.47736">
        <ele>83.77</ele>
        <time>2019-03-27T10:22:37Z</time>
      </trkpt>
      <trkpt lat="43.44279" lon="3.47737">
        <ele>83.77</ele>
        <time>2019-03-27T10:24:44Z</time>
      </trkpt>
      <trkpt lat="43.44272" lon="3.47737">
        <ele>84.25</ele>
        <time>2019-03-27T10:24:54Z</time>
      </trkpt>
      <trkpt lat="43.44271" lon="3.47722">
        <ele>84.73</ele>
        <time>2019-03-27T10:25:03Z</time>
      </trkpt>
      <trkpt lat="43.44264" lon="3.47723">
        <ele>85.21</ele>
        <time>2019-03-27T10:25:16Z</time>
      </trkpt>
      <trkpt lat="43.44255" lon="3.47732">
        <ele>84.73</ele>
        <time>2019-03-27T10:25:29Z</time>
      </trkpt>
      <trkpt lat="43.44246" lon="3.47738">
        <ele>84.73</ele>
        <time>2019-03-27T10:25:39Z</time>
      </trkpt>
      <trkpt lat="43.44238" lon="3.47737">
        <ele>84.25</ele>
        <time>2019-03-27T10:25:54Z</time>
      </trkpt>
      <trkpt lat="43.44229" lon="3.47736">
        <ele>83.77</ele>
        <time>2019-03-27T10:26:04Z</time>
      </trkpt>
      <trkpt lat="43.44215" lon="3.47732">
        <ele>82.81</ele>
        <time>2019-03-27T10:26:17Z</time>
      </trkpt>
      <trkpt lat="43.44202" lon="3.47731">
        <ele>81.37</ele>
        <time>2019-03-27T10:26:28Z</time>
      </trkpt>
      <trkpt lat="43.44189" lon="3.47731">
        <ele>80.89</ele>
        <time>2019-03-27T10:26:37Z</time>
      </trkpt>
      <trkpt lat="43.44179" lon="3.47731">
        <ele>80.41</ele>
        <time>2019-03-27T10:26:46Z</time>
      </trkpt>
      <trkpt lat="43.4417" lon="3.47731">
        <ele>79.93</ele>
        <time>2019-03-27T10:26:55Z</time>
      </trkpt>
      <trkpt lat="43.44161" lon="3.47729">
        <ele>79.45</ele>
        <time>2019-03-27T10:27:04Z</time>
      </trkpt>
      <trkpt lat="43.44151" lon="3.47728">
        <ele>78.97</ele>
        <time>2019-03-27T10:27:13Z</time>
      </trkpt>
      <trkpt lat="43.44142" lon="3.4773">
        <ele>78.97</ele>
        <time>2019-03-27T10:27:23Z</time>
      </trkpt>
      <trkpt lat="43.44133" lon="3.47737">
        <ele>77.52</ele>
        <time>2019-03-27T10:27:32Z</time>
      </trkpt>
      <trkpt lat="43.44124" lon="3.47744">
        <ele>77.52</ele>
        <time>2019-03-27T10:27:42Z</time>
      </trkpt>
      <trkpt lat="43.44116" lon="3.47742">
        <ele>77.04</ele>
        <time>2019-03-27T10:27:52Z</time>
      </trkpt>
      <trkpt lat="43.44107" lon="3.47735">
        <ele>76.56</ele>
        <time>2019-03-27T10:28:02Z</time>
      </trkpt>
      <trkpt lat="43.44098" lon="3.47731">
        <ele>75.12</ele>
        <time>2019-03-27T10:28:12Z</time>
      </trkpt>
      <trkpt lat="43.44088" lon="3.47729">
        <ele>74.64</ele>
        <time>2019-03-27T10:28:21Z</time>
      </trkpt>
      <trkpt lat="43.44079" lon="3.4773">
        <ele>74.16</ele>
        <time>2019-03-27T10:28:29Z</time>
      </trkpt>
      <trkpt lat="43.44069" lon="3.4773">
        <ele>74.16</ele>
        <time>2019-03-27T10:28:38Z</time>
      </trkpt>
      <trkpt lat="43.4406" lon="3.4773">
        <ele>73.68</ele>
        <time>2019-03-27T10:28:46Z</time>
      </trkpt>
      <trkpt lat="43.44051" lon="3.47732">
        <ele>73.68</ele>
        <time>2019-03-27T10:28:54Z</time>
      </trkpt>
      <trkpt lat="43.44041" lon="3.47731">
        <ele>73.2</ele>
        <time>2019-03-27T10:29:03Z</time>
      </trkpt>
      <trkpt lat="43.44031" lon="3.47733">
        <ele>73.2</ele>
        <time>2019-03-27T10:29:12Z</time>
      </trkpt>
      <trkpt lat="43.44021" lon="3.47736">
        <ele>73.2</ele>
        <time>2019-03-27T10:29:22Z</time>
      </trkpt>
      <trkpt lat="43.44011" lon="3.4774">
        <ele>72.72</ele>
        <time>2019-03-27T10:29:31Z</time>
      </trkpt>
      <trkpt lat="43.44" lon="3.47743">
        <ele>72.72</ele>
        <time>2019-03-27T10:29:40Z</time>
      </trkpt>
      <trkpt lat="43.43991" lon="3.47746">
        <ele>73.2</ele>
        <time>2019-03-27T10:29:50Z</time>
      </trkpt>
      <trkpt lat="43.43982" lon="3.47748">
        <ele>73.2</ele>
        <time>2019-03-27T10:29:58Z</time>
      </trkpt>
      <trkpt lat="43.43972" lon="3.4775">
        <ele>73.2</ele>
        <time>2019-03-27T10:30:07Z</time>
      </trkpt>
      <trkpt lat="43.43961" lon="3.47747">
        <ele>72.72</ele>
        <time>2019-03-27T10:30:16Z</time>
      </trkpt>
      <trkpt lat="43.43956" lon="3.4774">
        <ele>73.2</ele>
        <time>2019-03-27T10:30:42Z</time>
      </trkpt>
      <trkpt lat="43.43947" lon="3.47733">
        <ele>73.68</ele>
        <time>2019-03-27T10:30:53Z</time>
      </trkpt>
      <trkpt lat="43.43939" lon="3.47728">
        <ele>73.68</ele>
        <time>2019-03-27T10:31:05Z</time>
      </trkpt>
      <trkpt lat="43.43929" lon="3.47723">
        <ele>73.2</ele>
        <time>2019-03-27T10:31:18Z</time>
      </trkpt>
      <trkpt lat="43.43922" lon="3.47712">
        <ele>72.24</ele>
        <time>2019-03-27T10:31:52Z</time>
      </trkpt>
      <trkpt lat="43.43916" lon="3.47701">
        <ele>71.76</ele>
        <time>2019-03-27T10:32:05Z</time>
      </trkpt>
      <trkpt lat="43.43913" lon="3.47689">
        <ele>71.76</ele>
        <time>2019-03-27T10:32:16Z</time>
      </trkpt>
      <trkpt lat="43.43909" lon="3.47677">
        <ele>71.76</ele>
        <time>2019-03-27T10:32:26Z</time>
      </trkpt>
      <trkpt lat="43.43906" lon="3.47663">
        <ele>71.27</ele>
        <time>2019-03-27T10:32:36Z</time>
      </trkpt>
      <trkpt lat="43.43905" lon="3.47649">
        <ele>71.27</ele>
        <time>2019-03-27T10:32:46Z</time>
      </trkpt>
      <trkpt lat="43.43903" lon="3.47636">
        <ele>71.27</ele>
        <time>2019-03-27T10:32:57Z</time>
      </trkpt>
      <trkpt lat="43.439" lon="3.47624">
        <ele>70.79</ele>
        <time>2019-03-27T10:33:06Z</time>
      </trkpt>
      <trkpt lat="43.43896" lon="3.47611">
        <ele>70.79</ele>
        <time>2019-03-27T10:33:16Z</time>
      </trkpt>
      <trkpt lat="43.43889" lon="3.47603">
        <ele>70.31</ele>
        <time>2019-03-27T10:33:25Z</time>
      </trkpt>
      <trkpt lat="43.43881" lon="3.47605">
        <ele>70.31</ele>
        <time>2019-03-27T10:33:39Z</time>
      </trkpt>
      <trkpt lat="43.43873" lon="3.4761">
        <ele>70.79</ele>
        <time>2019-03-27T10:33:48Z</time>
      </trkpt>
      <trkpt lat="43.43864" lon="3.47616">
        <ele>70.31</ele>
        <time>2019-03-27T10:33:58Z</time>
      </trkpt>
      <trkpt lat="43.43855" lon="3.47624">
        <ele>70.31</ele>
        <time>2019-03-27T10:34:09Z</time>
      </trkpt>
      <trkpt lat="43.43847" lon="3.47628">
        <ele>70.31</ele>
        <time>2019-03-27T10:34:18Z</time>
      </trkpt>
      <trkpt lat="43.43838" lon="3.47628">
        <ele>70.79</ele>
        <time>2019-03-27T10:34:27Z</time>
      </trkpt>
      <trkpt lat="43.4383" lon="3.47623">
        <ele>71.27</ele>
        <time>2019-03-27T10:34:39Z</time>
      </trkpt>
      <trkpt lat="43.43822" lon="3.47614">
        <ele>70.79</ele>
        <time>2019-03-27T10:34:50Z</time>
      </trkpt>
      <trkpt lat="43.43814" lon="3.47607">
        <ele>70.79</ele>
        <time>2019-03-27T10:35:01Z</time>
      </trkpt>
      <trkpt lat="43.43804" lon="3.47601">
        <ele>70.31</ele>
        <time>2019-03-27T10:35:10Z</time>
      </trkpt>
      <trkpt lat="43.43794" lon="3.47595">
        <ele>70.31</ele>
        <time>2019-03-27T10:35:20Z</time>
      </trkpt>
      <trkpt lat="43.43784" lon="3.47589">
        <ele>70.31</ele>
        <time>2019-03-27T10:35:31Z</time>
      </trkpt>
      <trkpt lat="43.43774" lon="3.47582">
        <ele>69.83</ele>
        <time>2019-03-27T10:35:41Z</time>
      </trkpt>
      <trkpt lat="43.43766" lon="3.47575">
        <ele>69.83</ele>
        <time>2019-03-27T10:35:50Z</time>
      </trkpt>
      <trkpt lat="43.43757" lon="3.47569">
        <ele>69.35</ele>
        <time>2019-03-27T10:35:59Z</time>
      </trkpt>
      <trkpt lat="43.43747" lon="3.47564">
        <ele>69.35</ele>
        <time>2019-03-27T10:36:08Z</time>
      </trkpt>
      <trkpt lat="43.43738" lon="3.47559">
        <ele>68.87</ele>
        <time>2019-03-27T10:36:17Z</time>
      </trkpt>
      <trkpt lat="43.4373" lon="3.47551">
        <ele>68.87</ele>
        <time>2019-03-27T10:36:27Z</time>
      </trkpt>
      <trkpt lat="43.43722" lon="3.47546">
        <ele>67.91</ele>
        <time>2019-03-27T10:36:36Z</time>
      </trkpt>
      <trkpt lat="43.43713" lon="3.47542">
        <ele>67.43</ele>
        <time>2019-03-27T10:36:45Z</time>
      </trkpt>
      <trkpt lat="43.43705" lon="3.47536">
        <ele>66.95</ele>
        <time>2019-03-27T10:36:53Z</time>
      </trkpt>
      <trkpt lat="43.437" lon="3.47529">
        <ele>66.47</ele>
        <time>2019-03-27T10:37:05Z</time>
      </trkpt>
      <trkpt lat="43.43697" lon="3.47525">
        <ele>66.47</ele>
        <time>2019-03-27T10:39:42Z</time>
      </trkpt>
      <trkpt lat="43.43689" lon="3.47518">
        <ele>66.47</ele>
        <time>2019-03-27T10:39:51Z</time>
      </trkpt>
      <trkpt lat="43.43681" lon="3.47506">
        <ele>66.47</ele>
        <time>2019-03-27T10:40:00Z</time>
      </trkpt>
      <trkpt lat="43.43673" lon="3.47496">
        <ele>66.47</ele>
        <time>2019-03-27T10:40:08Z</time>
      </trkpt>
      <trkpt lat="43.43665" lon="3.47489">
        <ele>65.99</ele>
        <time>2019-03-27T10:40:16Z</time>
      </trkpt>
      <trkpt lat="43.43658" lon="3.47484">
        <ele>65.99</ele>
        <time>2019-03-27T10:40:25Z</time>
      </trkpt>
      <trkpt lat="43.43649" lon="3.47478">
        <ele>65.99</ele>
        <time>2019-03-27T10:40:34Z</time>
      </trkpt>
      <trkpt lat="43.4364" lon="3.47473">
        <ele>65.99</ele>
        <time>2019-03-27T10:40:44Z</time>
      </trkpt>
      <trkpt lat="43.43631" lon="3.47469">
        <ele>65.99</ele>
        <time>2019-03-27T10:40:53Z</time>
      </trkpt>
      <trkpt lat="43.43622" lon="3.47467">
        <ele>65.99</ele>
        <time>2019-03-27T10:41:01Z</time>
      </trkpt>
      <trkpt lat="43.43613" lon="3.47463">
        <ele>65.99</ele>
        <time>2019-03-27T10:41:09Z</time>
      </trkpt>
      <trkpt lat="43.43605" lon="3.47459">
        <ele>65.51</ele>
        <time>2019-03-27T10:41:17Z</time>
      </trkpt>
      <trkpt lat="43.43595" lon="3.47455">
        <ele>65.51</ele>
        <time>2019-03-27T10:41:26Z</time>
      </trkpt>
      <trkpt lat="43.43586" lon="3.47453">
        <ele>65.51</ele>
        <time>2019-03-27T10:41:34Z</time>
      </trkpt>
      <trkpt lat="43.43577" lon="3.47448">
        <ele>65.99</ele>
        <time>2019-03-27T10:41:42Z</time>
      </trkpt>
      <trkpt lat="43.43569" lon="3.4744">
        <ele>65.99</ele>
        <time>2019-03-27T10:42:02Z</time>
      </trkpt>
      <trkpt lat="43.43564" lon="3.4743">
        <ele>65.99</ele>
        <time>2019-03-27T10:42:09Z</time>
      </trkpt>
      <trkpt lat="43.43559" lon="3.47417">
        <ele>65.99</ele>
        <time>2019-03-27T10:42:18Z</time>
      </trkpt>
      <trkpt lat="43.43554" lon="3.47404">
        <ele>65.51</ele>
        <time>2019-03-27T10:42:27Z</time>
      </trkpt>
      <trkpt lat="43.43548" lon="3.47391">
        <ele>65.03</ele>
        <time>2019-03-27T10:42:36Z</time>
      </trkpt>
      <trkpt lat="43.43544" lon="3.4738">
        <ele>65.03</ele>
        <time>2019-03-27T10:42:44Z</time>
      </trkpt>
      <trkpt lat="43.43541" lon="3.47365">
        <ele>65.03</ele>
        <time>2019-03-27T10:42:53Z</time>
      </trkpt>
      <trkpt lat="43.4354" lon="3.4735">
        <ele>64.55</ele>
        <time>2019-03-27T10:43:03Z</time>
      </trkpt>
      <trkpt lat="43.4354" lon="3.47336">
        <ele>64.07</ele>
        <time>2019-03-27T10:43:12Z</time>
      </trkpt>
      <trkpt lat="43.43541" lon="3.47323">
        <ele>64.07</ele>
        <time>2019-03-27T10:43:25Z</time>
      </trkpt>
      <trkpt lat="43.43544" lon="3.47307">
        <ele>64.07</ele>
        <time>2019-03-27T10:43:35Z</time>
      </trkpt>
      <trkpt lat="43.43546" lon="3.47293">
        <ele>63.58</ele>
        <time>2019-03-27T10:43:45Z</time>
      </trkpt>
      <trkpt lat="43.43547" lon="3.47278">
        <ele>63.1</ele>
        <time>2019-03-27T10:43:56Z</time>
      </trkpt>
      <trkpt lat="43.43549" lon="3.47263">
        <ele>63.58</ele>
        <time>2019-03-27T10:44:06Z</time>
      </trkpt>
      <trkpt lat="43.43549" lon="3.47247">
        <ele>63.1</ele>
        <time>2019-03-27T10:44:18Z</time>
      </trkpt>
      <trkpt lat="43.43547" lon="3.47233">
        <ele>63.1</ele>
        <time>2019-03-27T10:44:28Z</time>
      </trkpt>
      <trkpt lat="43.43548" lon="3.47219">
        <ele>63.1</ele>
        <time>2019-03-27T10:44:37Z</time>
      </trkpt>
      <trkpt lat="43.43548" lon="3.47205">
        <ele>62.62</ele>
        <time>2019-03-27T10:44:46Z</time>
      </trkpt>
      <trkpt lat="43.43546" lon="3.4719">
        <ele>61.66</ele>
        <time>2019-03-27T10:44:55Z</time>
      </trkpt>
      <trkpt lat="43.43546" lon="3.47177">
        <ele>61.66</ele>
        <time>2019-03-27T10:45:04Z</time>
      </trkpt>
      <trkpt lat="43.43547" lon="3.47163">
        <ele>61.66</ele>
        <time>2019-03-27T10:45:13Z</time>
      </trkpt>
      <trkpt lat="43.43547" lon="3.4715">
        <ele>61.18</ele>
        <time>2019-03-27T10:45:23Z</time>
      </trkpt>
      <trkpt lat="43.43546" lon="3.47137">
        <ele>61.18</ele>
        <time>2019-03-27T10:45:33Z</time>
      </trkpt>
      <trkpt lat="43.43546" lon="3.47124">
        <ele>61.18</ele>
        <time>2019-03-27T10:45:42Z</time>
      </trkpt>
      <trkpt lat="43.43548" lon="3.47111">
        <ele>61.66</ele>
        <time>2019-03-27T10:45:51Z</time>
      </trkpt>
      <trkpt lat="43.43548" lon="3.47098">
        <ele>61.66</ele>
        <time>2019-03-27T10:46:00Z</time>
      </trkpt>
      <trkpt lat="43.43548" lon="3.47084">
        <ele>61.66</ele>
        <time>2019-03-27T10:46:10Z</time>
      </trkpt>
      <trkpt lat="43.4355" lon="3.47073">
        <ele>61.18</ele>
        <time>2019-03-27T10:46:19Z</time>
      </trkpt>
      <trkpt lat="43.4355" lon="3.47061">
        <ele>61.66</ele>
        <time>2019-03-27T10:46:28Z</time>
      </trkpt>
      <trkpt lat="43.4355" lon="3.47047">
        <ele>62.14</ele>
        <time>2019-03-27T10:46:38Z</time>
      </trkpt>
      <trkpt lat="43.43547" lon="3.47035">
        <ele>63.1</ele>
        <time>2019-03-27T10:46:48Z</time>
      </trkpt>
      <trkpt lat="43.4354" lon="3.47024">
        <ele>63.58</ele>
        <time>2019-03-27T10:46:57Z</time>
      </trkpt>
      <trkpt lat="43.43534" lon="3.47015">
        <ele>63.58</ele>
        <time>2019-03-27T10:47:06Z</time>
      </trkpt>
      <trkpt lat="43.43529" lon="3.47003">
        <ele>64.07</ele>
        <time>2019-03-27T10:47:15Z</time>
      </trkpt>
      <trkpt lat="43.43524" lon="3.46991">
        <ele>64.07</ele>
        <time>2019-03-27T10:47:28Z</time>
      </trkpt>
      <trkpt lat="43.43522" lon="3.46982">
        <ele>64.07</ele>
        <time>2019-03-27T10:48:46Z</time>
      </trkpt>
      <trkpt lat="43.4352" lon="3.46969">
        <ele>63.1</ele>
        <time>2019-03-27T10:48:57Z</time>
      </trkpt>
      <trkpt lat="43.43521" lon="3.46973">
        <ele>63.1</ele>
        <time>2019-03-27T10:49:38Z</time>
      </trkpt>
      <trkpt lat="43.4352" lon="3.46973">
        <ele>63.58</ele>
        <time>2019-03-27T10:51:23Z</time>
      </trkpt>
      <trkpt lat="43.43518" lon="3.46959">
        <ele>62.62</ele>
        <time>2019-03-27T10:51:34Z</time>
      </trkpt>
      <trkpt lat="43.43516" lon="3.46943">
        <ele>62.14</ele>
        <time>2019-03-27T10:51:45Z</time>
      </trkpt>
      <trkpt lat="43.43513" lon="3.46929">
        <ele>61.66</ele>
        <time>2019-03-27T10:51:55Z</time>
      </trkpt>
      <trkpt lat="43.43512" lon="3.46916">
        <ele>60.7</ele>
        <time>2019-03-27T10:52:07Z</time>
      </trkpt>
      <trkpt lat="43.43512" lon="3.46899">
        <ele>60.22</ele>
        <time>2019-03-27T10:52:16Z</time>
      </trkpt>
      <trkpt lat="43.4351" lon="3.46885">
        <ele>59.26</ele>
        <time>2019-03-27T10:52:25Z</time>
      </trkpt>
      <trkpt lat="43.43509" lon="3.4687">
        <ele>58.78</ele>
        <time>2019-03-27T10:52:34Z</time>
      </trkpt>
      <trkpt lat="43.43507" lon="3.46853">
        <ele>58.3</ele>
        <time>2019-03-27T10:52:44Z</time>
      </trkpt>
      <trkpt lat="43.43508" lon="3.46838">
        <ele>57.34</ele>
        <time>2019-03-27T10:52:54Z</time>
      </trkpt>
      <trkpt lat="43.43506" lon="3.46824">
        <ele>56.86</ele>
        <time>2019-03-27T10:53:09Z</time>
      </trkpt>
      <trkpt lat="43.43505" lon="3.46824">
        <ele>55.89</ele>
        <time>2019-03-27T10:53:17Z</time>
      </trkpt>
      <trkpt lat="43.43487" lon="3.46831">
        <ele>54.93</ele>
        <time>2019-03-27T11:35:06Z</time>
      </trkpt>
      <trkpt lat="43.43484" lon="3.46828">
        <ele>55.41</ele>
        <time>2019-03-27T11:36:40Z</time>
      </trkpt>
      <trkpt lat="43.43485" lon="3.46831">
        <ele>54.93</ele>
        <time>2019-03-27T11:37:07Z</time>
      </trkpt>
      <trkpt lat="43.4349" lon="3.46827">
        <ele>54.93</ele>
        <time>2019-03-27T11:39:22Z</time>
      </trkpt>
      <trkpt lat="43.43497" lon="3.46825">
        <ele>53.97</ele>
        <time>2019-03-27T11:39:46Z</time>
      </trkpt>
      <trkpt lat="43.43506" lon="3.46825">
        <ele>54.45</ele>
        <time>2019-03-27T11:40:06Z</time>
      </trkpt>
      <trkpt lat="43.4351" lon="3.46813">
        <ele>53.97</ele>
        <time>2019-03-27T11:40:21Z</time>
      </trkpt>
      <trkpt lat="43.43512" lon="3.46812">
        <ele>53.97</ele>
        <time>2019-03-27T11:41:04Z</time>
      </trkpt>
      <trkpt lat="43.43519" lon="3.46809">
        <ele>53.97</ele>
        <time>2019-03-27T11:42:16Z</time>
      </trkpt>
      <trkpt lat="43.43527" lon="3.46803">
        <ele>53.97</ele>
        <time>2019-03-27T11:42:29Z</time>
      </trkpt>
      <trkpt lat="43.43534" lon="3.468">
        <ele>53.49</ele>
        <time>2019-03-27T11:42:46Z</time>
      </trkpt>
      <trkpt lat="43.43542" lon="3.46793">
        <ele>53.49</ele>
        <time>2019-03-27T11:42:55Z</time>
      </trkpt>
      <trkpt lat="43.43551" lon="3.46787">
        <ele>53.49</ele>
        <time>2019-03-27T11:43:04Z</time>
      </trkpt>
      <trkpt lat="43.43561" lon="3.46781">
        <ele>53.01</ele>
        <time>2019-03-27T11:43:13Z</time>
      </trkpt>
      <trkpt lat="43.43571" lon="3.46774">
        <ele>52.53</ele>
        <time>2019-03-27T11:43:22Z</time>
      </trkpt>
      <trkpt lat="43.43579" lon="3.46768">
        <ele>52.53</ele>
        <time>2019-03-27T11:43:31Z</time>
      </trkpt>
      <trkpt lat="43.43587" lon="3.46761">
        <ele>52.53</ele>
        <time>2019-03-27T11:43:40Z</time>
      </trkpt>
      <trkpt lat="43.43596" lon="3.46754">
        <ele>52.05</ele>
        <time>2019-03-27T11:43:51Z</time>
      </trkpt>
      <trkpt lat="43.43601" lon="3.46747">
        <ele>51.57</ele>
        <time>2019-03-27T11:44:06Z</time>
      </trkpt>
      <trkpt lat="43.43607" lon="3.46737">
        <ele>51.57</ele>
        <time>2019-03-27T11:44:15Z</time>
      </trkpt>
      <trkpt lat="43.43616" lon="3.46729">
        <ele>51.57</ele>
        <time>2019-03-27T11:44:24Z</time>
      </trkpt>
      <trkpt lat="43.43625" lon="3.46723">
        <ele>51.09</ele>
        <time>2019-03-27T11:44:33Z</time>
      </trkpt>
      <trkpt lat="43.43634" lon="3.46721">
        <ele>50.61</ele>
        <time>2019-03-27T11:44:45Z</time>
      </trkpt>
      <trkpt lat="43.43644" lon="3.46716">
        <ele>50.61</ele>
        <time>2019-03-27T11:44:54Z</time>
      </trkpt>
      <trkpt lat="43.43654" lon="3.46714">
        <ele>50.61</ele>
        <time>2019-03-27T11:45:03Z</time>
      </trkpt>
      <trkpt lat="43.43659" lon="3.46716">
        <ele>50.13</ele>
        <time>2019-03-27T11:45:56Z</time>
      </trkpt>
      <trkpt lat="43.43666" lon="3.46708">
        <ele>49.16</ele>
        <time>2019-03-27T11:46:09Z</time>
      </trkpt>
      <trkpt lat="43.43671" lon="3.46696">
        <ele>48.68</ele>
        <time>2019-03-27T11:46:18Z</time>
      </trkpt>
      <trkpt lat="43.43674" lon="3.46683">
        <ele>48.2</ele>
        <time>2019-03-27T11:46:26Z</time>
      </trkpt>
      <trkpt lat="43.43675" lon="3.46671">
        <ele>48.2</ele>
        <time>2019-03-27T11:46:35Z</time>
      </trkpt>
      <trkpt lat="43.43681" lon="3.46661">
        <ele>48.2</ele>
        <time>2019-03-27T11:46:44Z</time>
      </trkpt>
      <trkpt lat="43.4369" lon="3.46655">
        <ele>47.72</ele>
        <time>2019-03-27T11:46:53Z</time>
      </trkpt>
      <trkpt lat="43.43697" lon="3.46644">
        <ele>47.24</ele>
        <time>2019-03-27T11:47:02Z</time>
      </trkpt>
      <trkpt lat="43.43702" lon="3.46634">
        <ele>47.72</ele>
        <time>2019-03-27T11:47:10Z</time>
      </trkpt>
      <trkpt lat="43.43708" lon="3.46622">
        <ele>47.24</ele>
        <time>2019-03-27T11:47:19Z</time>
      </trkpt>
      <trkpt lat="43.43715" lon="3.46613">
        <ele>47.24</ele>
        <time>2019-03-27T11:47:27Z</time>
      </trkpt>
      <trkpt lat="43.43721" lon="3.46603">
        <ele>47.24</ele>
        <time>2019-03-27T11:47:36Z</time>
      </trkpt>
      <trkpt lat="43.43725" lon="3.46592">
        <ele>47.24</ele>
        <time>2019-03-27T11:47:44Z</time>
      </trkpt>
      <trkpt lat="43.4373" lon="3.46579">
        <ele>47.72</ele>
        <time>2019-03-27T11:47:53Z</time>
      </trkpt>
      <trkpt lat="43.43734" lon="3.46566">
        <ele>47.72</ele>
        <time>2019-03-27T11:48:02Z</time>
      </trkpt>
      <trkpt lat="43.43738" lon="3.46554">
        <ele>47.72</ele>
        <time>2019-03-27T11:48:11Z</time>
      </trkpt>
      <trkpt lat="43.43743" lon="3.46542">
        <ele>48.2</ele>
        <time>2019-03-27T11:48:20Z</time>
      </trkpt>
      <trkpt lat="43.43748" lon="3.46529">
        <ele>48.2</ele>
        <time>2019-03-27T11:48:29Z</time>
      </trkpt>
      <trkpt lat="43.43752" lon="3.46518">
        <ele>48.68</ele>
        <time>2019-03-27T11:48:39Z</time>
      </trkpt>
      <trkpt lat="43.43758" lon="3.46509">
        <ele>49.16</ele>
        <time>2019-03-27T11:48:49Z</time>
      </trkpt>
      <trkpt lat="43.43765" lon="3.46499">
        <ele>49.65</ele>
        <time>2019-03-27T11:48:58Z</time>
      </trkpt>
      <trkpt lat="43.43772" lon="3.4649">
        <ele>50.13</ele>
        <time>2019-03-27T11:49:07Z</time>
      </trkpt>
      <trkpt lat="43.43779" lon="3.46482">
        <ele>49.65</ele>
        <time>2019-03-27T11:49:29Z</time>
      </trkpt>
      <trkpt lat="43.43783" lon="3.4647">
        <ele>50.13</ele>
        <time>2019-03-27T11:49:49Z</time>
      </trkpt>
      <trkpt lat="43.43786" lon="3.46459">
        <ele>50.13</ele>
        <time>2019-03-27T11:50:01Z</time>
      </trkpt>
      <trkpt lat="43.43792" lon="3.46445">
        <ele>50.13</ele>
        <time>2019-03-27T11:50:11Z</time>
      </trkpt>
      <trkpt lat="43.43797" lon="3.46432">
        <ele>50.13</ele>
        <time>2019-03-27T11:50:20Z</time>
      </trkpt>
      <trkpt lat="43.43803" lon="3.46421">
        <ele>50.13</ele>
        <time>2019-03-27T11:50:30Z</time>
      </trkpt>
      <trkpt lat="43.43809" lon="3.46408">
        <ele>50.61</ele>
        <time>2019-03-27T11:50:39Z</time>
      </trkpt>
      <trkpt lat="43.43817" lon="3.46401">
        <ele>50.61</ele>
        <time>2019-03-27T11:50:48Z</time>
      </trkpt>
      <trkpt lat="43.43824" lon="3.46392">
        <ele>51.09</ele>
        <time>2019-03-27T11:50:57Z</time>
      </trkpt>
      <trkpt lat="43.43832" lon="3.46384">
        <ele>52.05</ele>
        <time>2019-03-27T11:51:07Z</time>
      </trkpt>
      <trkpt lat="43.43839" lon="3.46374">
        <ele>52.53</ele>
        <time>2019-03-27T11:51:18Z</time>
      </trkpt>
      <trkpt lat="43.43842" lon="3.46361">
        <ele>53.49</ele>
        <time>2019-03-27T11:51:35Z</time>
      </trkpt>
      <trkpt lat="43.43846" lon="3.46346">
        <ele>53.01</ele>
        <time>2019-03-27T11:51:47Z</time>
      </trkpt>
      <trkpt lat="43.43844" lon="3.46333">
        <ele>53.01</ele>
        <time>2019-03-27T11:51:57Z</time>
      </trkpt>
      <trkpt lat="43.43841" lon="3.46319">
        <ele>51.57</ele>
        <time>2019-03-27T11:52:09Z</time>
      </trkpt>
      <trkpt lat="43.43847" lon="3.46307">
        <ele>51.09</ele>
        <time>2019-03-27T11:52:19Z</time>
      </trkpt>
      <trkpt lat="43.43853" lon="3.46299">
        <ele>50.13</ele>
        <time>2019-03-27T11:52:32Z</time>
      </trkpt>
      <trkpt lat="43.43861" lon="3.4629">
        <ele>49.65</ele>
        <time>2019-03-27T11:52:42Z</time>
      </trkpt>
      <trkpt lat="43.4387" lon="3.46285">
        <ele>48.68</ele>
        <time>2019-03-27T11:52:51Z</time>
      </trkpt>
      <trkpt lat="43.43877" lon="3.46277">
        <ele>48.2</ele>
        <time>2019-03-27T11:53:00Z</time>
      </trkpt>
      <trkpt lat="43.43881" lon="3.46267">
        <ele>48.2</ele>
        <time>2019-03-27T11:53:09Z</time>
      </trkpt>
      <trkpt lat="43.43887" lon="3.46255">
        <ele>47.72</ele>
        <time>2019-03-27T11:53:19Z</time>
      </trkpt>
      <trkpt lat="43.43892" lon="3.46241">
        <ele>47.24</ele>
        <time>2019-03-27T11:53:27Z</time>
      </trkpt>
      <trkpt lat="43.43896" lon="3.46231">
        <ele>47.24</ele>
        <time>2019-03-27T11:53:37Z</time>
      </trkpt>
      <trkpt lat="43.43901" lon="3.4622">
        <ele>46.76</ele>
        <time>2019-03-27T11:53:45Z</time>
      </trkpt>
      <trkpt lat="43.43906" lon="3.46209">
        <ele>46.76</ele>
        <time>2019-03-27T11:53:53Z</time>
      </trkpt>
      <trkpt lat="43.43911" lon="3.46197">
        <ele>46.28</ele>
        <time>2019-03-27T11:54:01Z</time>
      </trkpt>
      <trkpt lat="43.43916" lon="3.46187">
        <ele>46.28</ele>
        <time>2019-03-27T11:54:09Z</time>
      </trkpt>
      <trkpt lat="43.4392" lon="3.46175">
        <ele>45.8</ele>
        <time>2019-03-27T11:54:17Z</time>
      </trkpt>
      <trkpt lat="43.43925" lon="3.46164">
        <ele>45.8</ele>
        <time>2019-03-27T11:54:25Z</time>
      </trkpt>
      <trkpt lat="43.43931" lon="3.46153">
        <ele>45.32</ele>
        <time>2019-03-27T11:54:35Z</time>
      </trkpt>
      <trkpt lat="43.43938" lon="3.46146">
        <ele>45.8</ele>
        <time>2019-03-27T11:54:45Z</time>
      </trkpt>
      <trkpt lat="43.43943" lon="3.46134">
        <ele>46.28</ele>
        <time>2019-03-27T11:54:55Z</time>
      </trkpt>
      <trkpt lat="43.43943" lon="3.46117">
        <ele>45.32</ele>
        <time>2019-03-27T11:55:05Z</time>
      </trkpt>
      <trkpt lat="43.43942" lon="3.46103">
        <ele>44.84</ele>
        <time>2019-03-27T11:55:15Z</time>
      </trkpt>
      <trkpt lat="43.43939" lon="3.46095">
        <ele>45.32</ele>
        <time>2019-03-27T11:55:47Z</time>
      </trkpt>
      <trkpt lat="43.43938" lon="3.46095">
        <ele>45.32</ele>
        <time>2019-03-27T11:58:25Z</time>
      </trkpt>
      <trkpt lat="43.43932" lon="3.46089">
        <ele>45.32</ele>
        <time>2019-03-27T11:59:23Z</time>
      </trkpt>
      <trkpt lat="43.43923" lon="3.46083">
        <ele>45.32</ele>
        <time>2019-03-27T11:59:32Z</time>
      </trkpt>
      <trkpt lat="43.43916" lon="3.46075">
        <ele>44.84</ele>
        <time>2019-03-27T11:59:42Z</time>
      </trkpt>
      <trkpt lat="43.43911" lon="3.46064">
        <ele>44.84</ele>
        <time>2019-03-27T12:00:06Z</time>
      </trkpt>
      <trkpt lat="43.43903" lon="3.46052">
        <ele>44.84</ele>
        <time>2019-03-27T12:00:14Z</time>
      </trkpt>
      <trkpt lat="43.43895" lon="3.46046">
        <ele>44.84</ele>
        <time>2019-03-27T12:00:25Z</time>
      </trkpt>
      <trkpt lat="43.43889" lon="3.46048">
        <ele>44.84</ele>
        <time>2019-03-27T12:00:55Z</time>
      </trkpt>
      <trkpt lat="43.43879" lon="3.46047">
        <ele>44.36</ele>
        <time>2019-03-27T12:01:04Z</time>
      </trkpt>
      <trkpt lat="43.43868" lon="3.46044">
        <ele>44.84</ele>
        <time>2019-03-27T12:01:13Z</time>
      </trkpt>
      <trkpt lat="43.43861" lon="3.46036">
        <ele>44.84</ele>
        <time>2019-03-27T12:01:21Z</time>
      </trkpt>
      <trkpt lat="43.43855" lon="3.46023">
        <ele>45.32</ele>
        <time>2019-03-27T12:01:30Z</time>
      </trkpt>
      <trkpt lat="43.43849" lon="3.46011">
        <ele>45.32</ele>
        <time>2019-03-27T12:01:39Z</time>
      </trkpt>
      <trkpt lat="43.43845" lon="3.45999">
        <ele>45.8</ele>
        <time>2019-03-27T12:01:47Z</time>
      </trkpt>
      <trkpt lat="43.43842" lon="3.45987">
        <ele>46.28</ele>
        <time>2019-03-27T12:01:56Z</time>
      </trkpt>
      <trkpt lat="43.43836" lon="3.45975">
        <ele>46.76</ele>
        <time>2019-03-27T12:02:06Z</time>
      </trkpt>
      <trkpt lat="43.43828" lon="3.45966">
        <ele>46.76</ele>
        <time>2019-03-27T12:02:14Z</time>
      </trkpt>
      <trkpt lat="43.43821" lon="3.45959">
        <ele>46.76</ele>
        <time>2019-03-27T12:02:23Z</time>
      </trkpt>
      <trkpt lat="43.43813" lon="3.45952">
        <ele>46.28</ele>
        <time>2019-03-27T12:02:32Z</time>
      </trkpt>
      <trkpt lat="43.43805" lon="3.45944">
        <ele>45.32</ele>
        <time>2019-03-27T12:02:41Z</time>
      </trkpt>
      <trkpt lat="43.43798" lon="3.45937">
        <ele>44.84</ele>
        <time>2019-03-27T12:02:56Z</time>
      </trkpt>
      <trkpt lat="43.4379" lon="3.45929">
        <ele>43.88</ele>
        <time>2019-03-27T12:03:04Z</time>
      </trkpt>
      <trkpt lat="43.43783" lon="3.4592">
        <ele>43.88</ele>
        <time>2019-03-27T12:03:12Z</time>
      </trkpt>
      <trkpt lat="43.43777" lon="3.4591">
        <ele>43.88</ele>
        <time>2019-03-27T12:03:20Z</time>
      </trkpt>
      <trkpt lat="43.4377" lon="3.45901">
        <ele>43.4</ele>
        <time>2019-03-27T12:03:28Z</time>
      </trkpt>
      <trkpt lat="43.43765" lon="3.4589">
        <ele>42.92</ele>
        <time>2019-03-27T12:03:36Z</time>
      </trkpt>
      <trkpt lat="43.43759" lon="3.45879">
        <ele>43.4</ele>
        <time>2019-03-27T12:03:44Z</time>
      </trkpt>
      <trkpt lat="43.43755" lon="3.45867">
        <ele>42.92</ele>
        <time>2019-03-27T12:03:52Z</time>
      </trkpt>
      <trkpt lat="43.43751" lon="3.45856">
        <ele>42.44</ele>
        <time>2019-03-27T12:04:00Z</time>
      </trkpt>
      <trkpt lat="43.43747" lon="3.45845">
        <ele>42.44</ele>
        <time>2019-03-27T12:04:08Z</time>
      </trkpt>
      <trkpt lat="43.43742" lon="3.45834">
        <ele>42.44</ele>
        <time>2019-03-27T12:04:16Z</time>
      </trkpt>
      <trkpt lat="43.43737" lon="3.45821">
        <ele>41.95</ele>
        <time>2019-03-27T12:04:24Z</time>
      </trkpt>
      <trkpt lat="43.43732" lon="3.4581">
        <ele>42.44</ele>
        <time>2019-03-27T12:04:32Z</time>
      </trkpt>
      <trkpt lat="43.43726" lon="3.458">
        <ele>41.95</ele>
        <time>2019-03-27T12:04:40Z</time>
      </trkpt>
      <trkpt lat="43.43721" lon="3.45787">
        <ele>41.95</ele>
        <time>2019-03-27T12:04:49Z</time>
      </trkpt>
      <trkpt lat="43.43717" lon="3.45775">
        <ele>41.47</ele>
        <time>2019-03-27T12:04:57Z</time>
      </trkpt>
      <trkpt lat="43.43713" lon="3.45762">
        <ele>41.95</ele>
        <time>2019-03-27T12:05:06Z</time>
      </trkpt>
      <trkpt lat="43.43708" lon="3.4575">
        <ele>41.47</ele>
        <time>2019-03-27T12:05:15Z</time>
      </trkpt>
      <trkpt lat="43.43702" lon="3.45739">
        <ele>41.95</ele>
        <time>2019-03-27T12:05:24Z</time>
      </trkpt>
      <trkpt lat="43.437" lon="3.45726">
        <ele>40.99</ele>
        <time>2019-03-27T12:05:32Z</time>
      </trkpt>
      <trkpt lat="43.437" lon="3.45712">
        <ele>41.47</ele>
        <time>2019-03-27T12:05:40Z</time>
      </trkpt>
      <trkpt lat="43.43699" lon="3.45699">
        <ele>40.99</ele>
        <time>2019-03-27T12:05:48Z</time>
      </trkpt>
      <trkpt lat="43.43697" lon="3.45686">
        <ele>40.99</ele>
        <time>2019-03-27T12:05:56Z</time>
      </trkpt>
      <trkpt lat="43.43697" lon="3.45672">
        <ele>40.99</ele>
        <time>2019-03-27T12:06:04Z</time>
      </trkpt>
      <trkpt lat="43.43697" lon="3.45659">
        <ele>40.99</ele>
        <time>2019-03-27T12:06:12Z</time>
      </trkpt>
      <trkpt lat="43.43696" lon="3.45647">
        <ele>40.99</ele>
        <time>2019-03-27T12:06:20Z</time>
      </trkpt>
      <trkpt lat="43.43696" lon="3.45634">
        <ele>40.99</ele>
        <time>2019-03-27T12:06:30Z</time>
      </trkpt>
      <trkpt lat="43.43697" lon="3.45622">
        <ele>40.99</ele>
        <time>2019-03-27T12:06:47Z</time>
      </trkpt>
      <trkpt lat="43.43693" lon="3.45621">
        <ele>40.03</ele>
        <time>2019-03-27T12:07:13Z</time>
      </trkpt>
      <trkpt lat="43.43692" lon="3.45622">
        <ele>40.03</ele>
        <time>2019-03-27T12:07:42Z</time>
      </trkpt>
      <trkpt lat="43.43688" lon="3.45628">
        <ele>40.51</ele>
        <time>2019-03-27T12:09:58Z</time>
      </trkpt>
      <trkpt lat="43.43683" lon="3.4564">
        <ele>40.03</ele>
        <time>2019-03-27T12:10:05Z</time>
      </trkpt>
      <trkpt lat="43.43677" lon="3.45651">
        <ele>39.55</ele>
        <time>2019-03-27T12:10:14Z</time>
      </trkpt>
      <trkpt lat="43.43672" lon="3.45663">
        <ele>39.55</ele>
        <time>2019-03-27T12:10:22Z</time>
      </trkpt>
      <trkpt lat="43.43666" lon="3.45673">
        <ele>39.55</ele>
        <time>2019-03-27T12:10:32Z</time>
      </trkpt>
      <trkpt lat="43.43658" lon="3.45683">
        <ele>40.03</ele>
        <time>2019-03-27T12:10:41Z</time>
      </trkpt>
      <trkpt lat="43.43652" lon="3.45694">
        <ele>40.51</ele>
        <time>2019-03-27T12:10:49Z</time>
      </trkpt>
      <trkpt lat="43.43648" lon="3.45706">
        <ele>40.51</ele>
        <time>2019-03-27T12:10:57Z</time>
      </trkpt>
      <trkpt lat="43.43644" lon="3.45718">
        <ele>40.51</ele>
        <time>2019-03-27T12:11:05Z</time>
      </trkpt>
      <trkpt lat="43.43638" lon="3.45724">
        <ele>40.99</ele>
        <time>2019-03-27T12:12:00Z</time>
      </trkpt>
      <trkpt lat="43.43637" lon="3.45722">
        <ele>41.47</ele>
        <time>2019-03-27T12:12:54Z</time>
      </trkpt>
      <trkpt lat="43.43635" lon="3.45707">
        <ele>41.95</ele>
        <time>2019-03-27T12:13:03Z</time>
      </trkpt>
      <trkpt lat="43.43632" lon="3.45696">
        <ele>41.95</ele>
        <time>2019-03-27T12:13:13Z</time>
      </trkpt>
      <trkpt lat="43.43628" lon="3.45682">
        <ele>42.44</ele>
        <time>2019-03-27T12:13:22Z</time>
      </trkpt>
      <trkpt lat="43.43624" lon="3.4567">
        <ele>42.92</ele>
        <time>2019-03-27T12:13:30Z</time>
      </trkpt>
      <trkpt lat="43.4362" lon="3.45659">
        <ele>42.92</ele>
        <time>2019-03-27T12:13:47Z</time>
      </trkpt>
      <trkpt lat="43.43615" lon="3.45646">
        <ele>42.92</ele>
        <time>2019-03-27T12:13:56Z</time>
      </trkpt>
      <trkpt lat="43.43609" lon="3.45635">
        <ele>42.92</ele>
        <time>2019-03-27T12:14:04Z</time>
      </trkpt>
      <trkpt lat="43.43604" lon="3.45624">
        <ele>42.44</ele>
        <time>2019-03-27T12:14:12Z</time>
      </trkpt>
      <trkpt lat="43.43598" lon="3.45614">
        <ele>42.44</ele>
        <time>2019-03-27T12:14:20Z</time>
      </trkpt>
      <trkpt lat="43.43593" lon="3.45602">
        <ele>42.44</ele>
        <time>2019-03-27T12:14:28Z</time>
      </trkpt>
      <trkpt lat="43.43589" lon="3.45592">
        <ele>42.44</ele>
        <time>2019-03-27T12:14:36Z</time>
      </trkpt>
      <trkpt lat="43.43583" lon="3.4558">
        <ele>42.44</ele>
        <time>2019-03-27T12:14:44Z</time>
      </trkpt>
      <trkpt lat="43.43576" lon="3.4557">
        <ele>42.44</ele>
        <time>2019-03-27T12:14:52Z</time>
      </trkpt>
      <trkpt lat="43.43572" lon="3.45561">
        <ele>41.95</ele>
        <time>2019-03-27T12:15:02Z</time>
      </trkpt>
      <trkpt lat="43.43568" lon="3.45551">
        <ele>42.44</ele>
        <time>2019-03-27T12:15:35Z</time>
      </trkpt>
      <trkpt lat="43.43567" lon="3.4554">
        <ele>42.44</ele>
        <time>2019-03-27T12:15:59Z</time>
      </trkpt>
      <trkpt lat="43.43564" lon="3.45525">
        <ele>42.92</ele>
        <time>2019-03-27T12:16:08Z</time>
      </trkpt>
      <trkpt lat="43.43561" lon="3.45512">
        <ele>43.4</ele>
        <time>2019-03-27T12:16:16Z</time>
      </trkpt>
      <trkpt lat="43.4356" lon="3.455">
        <ele>43.4</ele>
        <time>2019-03-27T12:16:24Z</time>
      </trkpt>
      <trkpt lat="43.4356" lon="3.45487">
        <ele>43.88</ele>
        <time>2019-03-27T12:16:32Z</time>
      </trkpt>
      <trkpt lat="43.43558" lon="3.45471">
        <ele>43.88</ele>
        <time>2019-03-27T12:16:41Z</time>
      </trkpt>
      <trkpt lat="43.43555" lon="3.45457">
        <ele>44.84</ele>
        <time>2019-03-27T12:16:50Z</time>
      </trkpt>
      <trkpt lat="43.43553" lon="3.45445">
        <ele>45.32</ele>
        <time>2019-03-27T12:16:58Z</time>
      </trkpt>
      <trkpt lat="43.4355" lon="3.4543">
        <ele>46.28</ele>
        <time>2019-03-27T12:17:08Z</time>
      </trkpt>
      <trkpt lat="43.43549" lon="3.45415">
        <ele>46.76</ele>
        <time>2019-03-27T12:17:16Z</time>
      </trkpt>
      <trkpt lat="43.43545" lon="3.45401">
        <ele>47.24</ele>
        <time>2019-03-27T12:17:25Z</time>
      </trkpt>
      <trkpt lat="43.43541" lon="3.4539">
        <ele>47.72</ele>
        <time>2019-03-27T12:17:33Z</time>
      </trkpt>
      <trkpt lat="43.4354" lon="3.45377">
        <ele>48.68</ele>
        <time>2019-03-27T12:17:41Z</time>
      </trkpt>
      <trkpt lat="43.43538" lon="3.45364">
        <ele>49.65</ele>
        <time>2019-03-27T12:17:49Z</time>
      </trkpt>
      <trkpt lat="43.43533" lon="3.45355">
        <ele>50.13</ele>
        <time>2019-03-27T12:17:57Z</time>
      </trkpt>
      <trkpt lat="43.43525" lon="3.45355">
        <ele>51.09</ele>
        <time>2019-03-27T12:18:23Z</time>
      </trkpt>
      <trkpt lat="43.43516" lon="3.45358">
        <ele>51.57</ele>
        <time>2019-03-27T12:18:33Z</time>
      </trkpt>
      <trkpt lat="43.43507" lon="3.45355">
        <ele>51.57</ele>
        <time>2019-03-27T12:18:43Z</time>
      </trkpt>
      <trkpt lat="43.43504" lon="3.45352">
        <ele>51.09</ele>
        <time>2019-03-27T12:22:18Z</time>
      </trkpt>
      <trkpt lat="43.43495" lon="3.45346">
        <ele>50.13</ele>
        <time>2019-03-27T12:22:29Z</time>
      </trkpt>
      <trkpt lat="43.43489" lon="3.45336">
        <ele>49.65</ele>
        <time>2019-03-27T12:22:38Z</time>
      </trkpt>
      <trkpt lat="43.43482" lon="3.45327">
        <ele>49.16</ele>
        <time>2019-03-27T12:22:47Z</time>
      </trkpt>
      <trkpt lat="43.43475" lon="3.45318">
        <ele>48.68</ele>
        <time>2019-03-27T12:22:56Z</time>
      </trkpt>
      <trkpt lat="43.43468" lon="3.45309">
        <ele>48.2</ele>
        <time>2019-03-27T12:23:05Z</time>
      </trkpt>
      <trkpt lat="43.4346" lon="3.45302">
        <ele>47.72</ele>
        <time>2019-03-27T12:23:14Z</time>
      </trkpt>
      <trkpt lat="43.4345" lon="3.45296">
        <ele>47.72</ele>
        <time>2019-03-27T12:23:23Z</time>
      </trkpt>
      <trkpt lat="43.43439" lon="3.45292">
        <ele>47.24</ele>
        <time>2019-03-27T12:23:32Z</time>
      </trkpt>
      <trkpt lat="43.43431" lon="3.45286">
        <ele>47.24</ele>
        <time>2019-03-27T12:23:40Z</time>
      </trkpt>
      <trkpt lat="43.43423" lon="3.45278">
        <ele>47.24</ele>
        <time>2019-03-27T12:23:48Z</time>
      </trkpt>
      <trkpt lat="43.43416" lon="3.45267">
        <ele>47.72</ele>
        <time>2019-03-27T12:23:56Z</time>
      </trkpt>
      <trkpt lat="43.43411" lon="3.45256">
        <ele>47.24</ele>
        <time>2019-03-27T12:24:04Z</time>
      </trkpt>
      <trkpt lat="43.43409" lon="3.45242">
        <ele>47.24</ele>
        <time>2019-03-27T12:24:12Z</time>
      </trkpt>
      <trkpt lat="43.43411" lon="3.45228">
        <ele>48.2</ele>
        <time>2019-03-27T12:24:20Z</time>
      </trkpt>
      <trkpt lat="43.43411" lon="3.45215">
        <ele>49.16</ele>
        <time>2019-03-27T12:24:29Z</time>
      </trkpt>
      <trkpt lat="43.4341" lon="3.45203">
        <ele>49.65</ele>
        <time>2019-03-27T12:24:37Z</time>
      </trkpt>
      <trkpt lat="43.4341" lon="3.45189">
        <ele>51.09</ele>
        <time>2019-03-27T12:24:46Z</time>
      </trkpt>
      <trkpt lat="43.43407" lon="3.45176">
        <ele>52.53</ele>
        <time>2019-03-27T12:24:56Z</time>
      </trkpt>
      <trkpt lat="43.434" lon="3.45167">
        <ele>53.01</ele>
        <time>2019-03-27T12:25:04Z</time>
      </trkpt>
      <trkpt lat="43.43395" lon="3.45156">
        <ele>53.49</ele>
        <time>2019-03-27T12:25:12Z</time>
      </trkpt>
      <trkpt lat="43.43389" lon="3.45145">
        <ele>54.45</ele>
        <time>2019-03-27T12:25:21Z</time>
      </trkpt>
      <trkpt lat="43.4338" lon="3.45142">
        <ele>53.97</ele>
        <time>2019-03-27T12:25:30Z</time>
      </trkpt>
      <trkpt lat="43.43372" lon="3.45145">
        <ele>54.93</ele>
        <time>2019-03-27T12:25:43Z</time>
      </trkpt>
      <trkpt lat="43.43365" lon="3.4515">
        <ele>55.41</ele>
        <time>2019-03-27T12:25:55Z</time>
      </trkpt>
      <trkpt lat="43.43357" lon="3.45158">
        <ele>55.89</ele>
        <time>2019-03-27T12:26:04Z</time>
      </trkpt>
      <trkpt lat="43.43348" lon="3.45161">
        <ele>56.37</ele>
        <time>2019-03-27T12:26:13Z</time>
      </trkpt>
      <trkpt lat="43.43336" lon="3.45162">
        <ele>55.89</ele>
        <time>2019-03-27T12:26:22Z</time>
      </trkpt>
      <trkpt lat="43.43327" lon="3.45166">
        <ele>55.89</ele>
        <time>2019-03-27T12:26:30Z</time>
      </trkpt>
      <trkpt lat="43.43318" lon="3.45169">
        <ele>55.89</ele>
        <time>2019-03-27T12:26:38Z</time>
      </trkpt>
      <trkpt lat="43.43308" lon="3.45173">
        <ele>55.41</ele>
        <time>2019-03-27T12:26:46Z</time>
      </trkpt>
      <trkpt lat="43.43299" lon="3.45177">
        <ele>55.89</ele>
        <time>2019-03-27T12:26:54Z</time>
      </trkpt>
      <trkpt lat="43.4329" lon="3.45177">
        <ele>56.86</ele>
        <time>2019-03-27T12:27:02Z</time>
      </trkpt>
      <trkpt lat="43.4328" lon="3.45172">
        <ele>57.34</ele>
        <time>2019-03-27T12:27:11Z</time>
      </trkpt>
      <trkpt lat="43.43272" lon="3.45165">
        <ele>57.82</ele>
        <time>2019-03-27T12:27:22Z</time>
      </trkpt>
      <trkpt lat="43.43269" lon="3.45153">
        <ele>57.82</ele>
        <time>2019-03-27T12:27:44Z</time>
      </trkpt>
      <trkpt lat="43.43271" lon="3.45139">
        <ele>57.82</ele>
        <time>2019-03-27T12:27:54Z</time>
      </trkpt>
      <trkpt lat="43.43274" lon="3.45127">
        <ele>57.34</ele>
        <time>2019-03-27T12:28:04Z</time>
      </trkpt>
      <trkpt lat="43.43273" lon="3.45114">
        <ele>56.86</ele>
        <time>2019-03-27T12:28:17Z</time>
      </trkpt>
      <trkpt lat="43.43274" lon="3.45102">
        <ele>56.86</ele>
        <time>2019-03-27T12:28:25Z</time>
      </trkpt>
      <trkpt lat="43.43276" lon="3.45089">
        <ele>57.34</ele>
        <time>2019-03-27T12:28:35Z</time>
      </trkpt>
      <trkpt lat="43.43275" lon="3.45074">
        <ele>57.34</ele>
        <time>2019-03-27T12:28:45Z</time>
      </trkpt>
      <trkpt lat="43.43276" lon="3.45063">
        <ele>57.82</ele>
        <time>2019-03-27T12:28:53Z</time>
      </trkpt>
      <trkpt lat="43.43274" lon="3.4505">
        <ele>57.34</ele>
        <time>2019-03-27T12:29:02Z</time>
      </trkpt>
      <trkpt lat="43.43271" lon="3.45038">
        <ele>57.82</ele>
        <time>2019-03-27T12:29:10Z</time>
      </trkpt>
      <trkpt lat="43.43269" lon="3.45023">
        <ele>57.82</ele>
        <time>2019-03-27T12:29:19Z</time>
      </trkpt>
      <trkpt lat="43.43268" lon="3.4501">
        <ele>57.82</ele>
        <time>2019-03-27T12:29:28Z</time>
      </trkpt>
      <trkpt lat="43.43269" lon="3.44997">
        <ele>57.82</ele>
        <time>2019-03-27T12:29:37Z</time>
      </trkpt>
      <trkpt lat="43.4327" lon="3.44983">
        <ele>57.82</ele>
        <time>2019-03-27T12:29:46Z</time>
      </trkpt>
      <trkpt lat="43.43272" lon="3.44969">
        <ele>57.82</ele>
        <time>2019-03-27T12:29:55Z</time>
      </trkpt>
      <trkpt lat="43.43276" lon="3.44955">
        <ele>57.34</ele>
        <time>2019-03-27T12:30:04Z</time>
      </trkpt>
      <trkpt lat="43.43278" lon="3.44942">
        <ele>57.34</ele>
        <time>2019-03-27T12:30:13Z</time>
      </trkpt>
      <trkpt lat="43.4328" lon="3.44928">
        <ele>56.86</ele>
        <time>2019-03-27T12:30:23Z</time>
      </trkpt>
      <trkpt lat="43.43282" lon="3.44914">
        <ele>56.86</ele>
        <time>2019-03-27T12:30:31Z</time>
      </trkpt>
      <trkpt lat="43.43285" lon="3.449">
        <ele>56.37</ele>
        <time>2019-03-27T12:30:40Z</time>
      </trkpt>
      <trkpt lat="43.4329" lon="3.4489">
        <ele>55.89</ele>
        <time>2019-03-27T12:30:48Z</time>
      </trkpt>
      <trkpt lat="43.43296" lon="3.44879">
        <ele>55.41</ele>
        <time>2019-03-27T12:30:57Z</time>
      </trkpt>
      <trkpt lat="43.43302" lon="3.44866">
        <ele>55.41</ele>
        <time>2019-03-27T12:31:06Z</time>
      </trkpt>
      <trkpt lat="43.43307" lon="3.44854">
        <ele>55.41</ele>
        <time>2019-03-27T12:31:14Z</time>
      </trkpt>
      <trkpt lat="43.43311" lon="3.44843">
        <ele>55.41</ele>
        <time>2019-03-27T12:31:25Z</time>
      </trkpt>
      <trkpt lat="43.43316" lon="3.44831">
        <ele>54.93</ele>
        <time>2019-03-27T12:31:34Z</time>
      </trkpt>
      <trkpt lat="43.4332" lon="3.44818">
        <ele>53.97</ele>
        <time>2019-03-27T12:31:43Z</time>
      </trkpt>
      <trkpt lat="43.43324" lon="3.44806">
        <ele>53.01</ele>
        <time>2019-03-27T12:31:53Z</time>
      </trkpt>
      <trkpt lat="43.43329" lon="3.44794">
        <ele>52.05</ele>
        <time>2019-03-27T12:32:02Z</time>
      </trkpt>
      <trkpt lat="43.43334" lon="3.44783">
        <ele>51.09</ele>
        <time>2019-03-27T12:32:10Z</time>
      </trkpt>
      <trkpt lat="43.43339" lon="3.44771">
        <ele>50.13</ele>
        <time>2019-03-27T12:32:18Z</time>
      </trkpt>
      <trkpt lat="43.43345" lon="3.4476">
        <ele>49.65</ele>
        <time>2019-03-27T12:32:26Z</time>
      </trkpt>
      <trkpt lat="43.4335" lon="3.4475">
        <ele>49.65</ele>
        <time>2019-03-27T12:32:34Z</time>
      </trkpt>
      <trkpt lat="43.43357" lon="3.44741">
        <ele>48.68</ele>
        <time>2019-03-27T12:32:42Z</time>
      </trkpt>
      <trkpt lat="43.43365" lon="3.44732">
        <ele>48.2</ele>
        <time>2019-03-27T12:32:51Z</time>
      </trkpt>
      <trkpt lat="43.43373" lon="3.44727">
        <ele>48.2</ele>
        <time>2019-03-27T12:33:02Z</time>
      </trkpt>
      <trkpt lat="43.43382" lon="3.44724">
        <ele>48.2</ele>
        <time>2019-03-27T12:33:10Z</time>
      </trkpt>
      <trkpt lat="43.4339" lon="3.44719">
        <ele>46.76</ele>
        <time>2019-03-27T12:33:18Z</time>
      </trkpt>
      <trkpt lat="43.43395" lon="3.44709">
        <ele>46.28</ele>
        <time>2019-03-27T12:33:26Z</time>
      </trkpt>
      <trkpt lat="43.43396" lon="3.44696">
        <ele>45.8</ele>
        <time>2019-03-27T12:33:34Z</time>
      </trkpt>
      <trkpt lat="43.43397" lon="3.44681">
        <ele>45.32</ele>
        <time>2019-03-27T12:33:42Z</time>
      </trkpt>
      <trkpt lat="43.43394" lon="3.4467">
        <ele>44.84</ele>
        <time>2019-03-27T12:33:50Z</time>
      </trkpt>
      <trkpt lat="43.43392" lon="3.44658">
        <ele>43.88</ele>
        <time>2019-03-27T12:33:59Z</time>
      </trkpt>
      <trkpt lat="43.43392" lon="3.44643">
        <ele>43.88</ele>
        <time>2019-03-27T12:34:14Z</time>
      </trkpt>
      <trkpt lat="43.43394" lon="3.44631">
        <ele>43.88</ele>
        <time>2019-03-27T12:34:22Z</time>
      </trkpt>
      <trkpt lat="43.43396" lon="3.44617">
        <ele>43.88</ele>
        <time>2019-03-27T12:34:31Z</time>
      </trkpt>
      <trkpt lat="43.434" lon="3.44605">
        <ele>43.4</ele>
        <time>2019-03-27T12:34:40Z</time>
      </trkpt>
      <trkpt lat="43.43406" lon="3.44594">
        <ele>42.92</ele>
        <time>2019-03-27T12:34:49Z</time>
      </trkpt>
      <trkpt lat="43.43409" lon="3.44582">
        <ele>41.95</ele>
        <time>2019-03-27T12:35:04Z</time>
      </trkpt>
      <trkpt lat="43.43411" lon="3.44569">
        <ele>42.44</ele>
        <time>2019-03-27T12:35:12Z</time>
      </trkpt>
      <trkpt lat="43.43416" lon="3.44557">
        <ele>42.44</ele>
        <time>2019-03-27T12:35:22Z</time>
      </trkpt>
      <trkpt lat="43.43424" lon="3.44546">
        <ele>42.92</ele>
        <time>2019-03-27T12:35:31Z</time>
      </trkpt>
      <trkpt lat="43.43429" lon="3.44536">
        <ele>42.92</ele>
        <time>2019-03-27T12:35:40Z</time>
      </trkpt>
      <trkpt lat="43.43435" lon="3.44525">
        <ele>42.44</ele>
        <time>2019-03-27T12:35:49Z</time>
      </trkpt>
      <trkpt lat="43.4344" lon="3.44512">
        <ele>42.92</ele>
        <time>2019-03-27T12:35:58Z</time>
      </trkpt>
      <trkpt lat="43.43445" lon="3.44501">
        <ele>42.44</ele>
        <time>2019-03-27T12:36:08Z</time>
      </trkpt>
      <trkpt lat="43.43453" lon="3.44496">
        <ele>41.95</ele>
        <time>2019-03-27T12:36:18Z</time>
      </trkpt>
      <trkpt lat="43.43462" lon="3.44495">
        <ele>40.99</ele>
        <time>2019-03-27T12:36:35Z</time>
      </trkpt>
      <trkpt lat="43.43472" lon="3.44493">
        <ele>40.99</ele>
        <time>2019-03-27T12:36:45Z</time>
      </trkpt>
      <trkpt lat="43.43479" lon="3.44495">
        <ele>40.51</ele>
        <time>2019-03-27T12:37:36Z</time>
      </trkpt>
      <trkpt lat="43.43483" lon="3.44502">
        <ele>40.51</ele>
        <time>2019-03-27T12:38:24Z</time>
      </trkpt>
      <trkpt lat="43.43484" lon="3.44506">
        <ele>38.59</ele>
        <time>2019-03-27T12:40:15Z</time>
      </trkpt>
      <trkpt lat="43.43491" lon="3.44502">
        <ele>37.15</ele>
        <time>2019-03-27T12:40:31Z</time>
      </trkpt>
      <trkpt lat="43.43493" lon="3.44491">
        <ele>36.67</ele>
        <time>2019-03-27T12:40:50Z</time>
      </trkpt>
      <trkpt lat="43.43489" lon="3.44481">
        <ele>35.71</ele>
        <time>2019-03-27T12:41:19Z</time>
      </trkpt>
      <trkpt lat="43.43486" lon="3.44467">
        <ele>34.26</ele>
        <time>2019-03-27T12:41:37Z</time>
      </trkpt>
      <trkpt lat="43.4348" lon="3.44457">
        <ele>33.3</ele>
        <time>2019-03-27T12:41:47Z</time>
      </trkpt>
      <trkpt lat="43.43475" lon="3.44444">
        <ele>32.82</ele>
        <time>2019-03-27T12:41:58Z</time>
      </trkpt>
      <trkpt lat="43.43473" lon="3.44428">
        <ele>32.34</ele>
        <time>2019-03-27T12:42:10Z</time>
      </trkpt>
      <trkpt lat="43.43472" lon="3.44415">
        <ele>32.34</ele>
        <time>2019-03-27T12:42:19Z</time>
      </trkpt>
      <trkpt lat="43.43469" lon="3.44397">
        <ele>33.78</ele>
        <time>2019-03-27T12:42:39Z</time>
      </trkpt>
      <trkpt lat="43.43467" lon="3.44383">
        <ele>33.78</ele>
        <time>2019-03-27T12:42:57Z</time>
      </trkpt>
      <trkpt lat="43.43464" lon="3.44368">
        <ele>32.34</ele>
        <time>2019-03-27T12:43:09Z</time>
      </trkpt>
      <trkpt lat="43.43465" lon="3.44359">
        <ele>31.38</ele>
        <time>2019-03-27T12:44:28Z</time>
      </trkpt>
      <trkpt lat="43.43462" lon="3.44348">
        <ele>30.42</ele>
        <time>2019-03-27T12:44:38Z</time>
      </trkpt>
      <trkpt lat="43.43459" lon="3.44333">
        <ele>28.98</ele>
        <time>2019-03-27T12:44:49Z</time>
      </trkpt>
      <trkpt lat="43.4346" lon="3.44344">
        <ele>29.94</ele>
        <time>2019-03-27T12:45:10Z</time>
      </trkpt>
      <trkpt lat="43.43459" lon="3.44332">
        <ele>28.98</ele>
        <time>2019-03-27T12:45:23Z</time>
      </trkpt>
      <trkpt lat="43.4346" lon="3.44317">
        <ele>28.02</ele>
        <time>2019-03-27T12:45:45Z</time>
      </trkpt>
      <trkpt lat="43.43459" lon="3.44302">
        <ele>27.05</ele>
        <time>2019-03-27T12:46:00Z</time>
      </trkpt>
      <trkpt lat="43.43455" lon="3.44289">
        <ele>26.09</ele>
        <time>2019-03-27T12:46:14Z</time>
      </trkpt>
      <trkpt lat="43.43456" lon="3.44274">
        <ele>25.13</ele>
        <time>2019-03-27T12:46:26Z</time>
      </trkpt>
      <trkpt lat="43.4346" lon="3.44263">
        <ele>23.69</ele>
        <time>2019-03-27T12:47:54Z</time>
      </trkpt>
      <trkpt lat="43.4346" lon="3.44265">
        <ele>23.21</ele>
        <time>2019-03-27T12:49:01Z</time>
      </trkpt>
      <trkpt lat="43.43462" lon="3.44251">
        <ele>25.13</ele>
        <time>2019-03-27T12:49:11Z</time>
      </trkpt>
      <trkpt lat="43.43461" lon="3.44238">
        <ele>27.05</ele>
        <time>2019-03-27T12:49:22Z</time>
      </trkpt>
      <trkpt lat="43.43457" lon="3.44228">
        <ele>28.5</ele>
        <time>2019-03-27T12:49:55Z</time>
      </trkpt>
      <trkpt lat="43.43455" lon="3.44216">
        <ele>31.38</ele>
        <time>2019-03-27T12:50:15Z</time>
      </trkpt>
      <trkpt lat="43.43449" lon="3.44211">
        <ele>32.82</ele>
        <time>2019-03-27T12:52:15Z</time>
      </trkpt>
      <trkpt lat="43.43446" lon="3.44197">
        <ele>34.26</ele>
        <time>2019-03-27T12:52:27Z</time>
      </trkpt>
      <trkpt lat="43.43442" lon="3.44182">
        <ele>36.19</ele>
        <time>2019-03-27T12:52:38Z</time>
      </trkpt>
      <trkpt lat="43.43447" lon="3.44169">
        <ele>38.59</ele>
        <time>2019-03-27T12:52:48Z</time>
      </trkpt>
      <trkpt lat="43.43447" lon="3.44159">
        <ele>40.51</ele>
        <time>2019-03-27T12:53:16Z</time>
      </trkpt>
      <trkpt lat="43.43451" lon="3.44156">
        <ele>40.99</ele>
        <time>2019-03-27T12:53:55Z</time>
      </trkpt>
      <trkpt lat="43.43452" lon="3.44143">
        <ele>41.47</ele>
        <time>2019-03-27T12:55:22Z</time>
      </trkpt>
      <trkpt lat="43.43454" lon="3.44128">
        <ele>42.44</ele>
        <time>2019-03-27T12:55:31Z</time>
      </trkpt>
      <trkpt lat="43.43457" lon="3.44114">
        <ele>43.4</ele>
        <time>2019-03-27T12:55:40Z</time>
      </trkpt>
      <trkpt lat="43.43459" lon="3.441">
        <ele>44.36</ele>
        <time>2019-03-27T12:55:49Z</time>
      </trkpt>
      <trkpt lat="43.43456" lon="3.44087">
        <ele>44.36</ele>
        <time>2019-03-27T12:55:58Z</time>
      </trkpt>
      <trkpt lat="43.43451" lon="3.44074">
        <ele>44.36</ele>
        <time>2019-03-27T12:56:18Z</time>
      </trkpt>
      <trkpt lat="43.43445" lon="3.44066">
        <ele>43.88</ele>
        <time>2019-03-27T12:56:30Z</time>
      </trkpt>
      <trkpt lat="43.43444" lon="3.44068">
        <ele>43.88</ele>
        <time>2019-03-27T12:57:33Z</time>
      </trkpt>
      <trkpt lat="43.43444" lon="3.44069">
        <ele>43.4</ele>
        <time>2019-03-27T12:57:58Z</time>
      </trkpt>
    </trkseg>
  </trk>
</gpx>